<?xml version="1.0" encoding="UTF-8" standalone="no" ?><gpx xmlns="http://www.topografix.com/GPX/1/1" xmlns:gpxx="http://www.garmin.com/xmlschemas/GpxExtensions/v3" xmlns:gpxtpx="http://www.garmin.com/xmlschemas/TrackPointExtension/v1" creator="Foretrex 301" version="1.1" xmlns:xsi="http://www.w3.org/2001/XMLSchema-instance" xsi:schemaLocation="http://www.topografix.com/GPX/1/1 http://www.topografix.com/GPX/1/1/gpx.xsd http://www.garmin.com/xmlschemas/GpxExtensions/v3 http://www.garmin.com/xmlschemas/GpxExtensions/v3/GpxExtensionsv3.xsd"><metadata><link href="http://www.garmin.com"><text>Garmin International</text></link><time>2011-10-05T15:18:43Z</time></metadata><trk><name>ACTIVE LOG: 05 OCT 2011 09:07</name><trkseg><trkpt lat="51.966810" lon="-1.923090"><ele>118.86</ele><time>2011-10-05T09:07:16Z</time></trkpt><trkpt lat="51.966810" lon="-1.923100"><ele>118.86</ele><time>2011-10-05T09:09:18Z</time></trkpt><trkpt lat="51.966857" lon="-1.923242"><ele>121.26</ele><time>2011-10-05T09:09:28Z</time></trkpt><trkpt lat="51.966899" lon="-1.923239"><ele>120.78</ele><time>2011-10-05T09:09:36Z</time></trkpt><trkpt lat="51.966989" lon="-1.923268"><ele>119.34</ele><time>2011-10-05T09:09:45Z</time></trkpt><trkpt lat="51.967046" lon="-1.923287"><ele>118.38</ele><time>2011-10-05T09:09:53Z</time></trkpt><trkpt lat="51.967085" lon="-1.923298"><ele>116.94</ele><time>2011-10-05T09:10:07Z</time></trkpt><trkpt lat="51.967165" lon="-1.923325"><ele>118.38</ele><time>2011-10-05T09:10:14Z</time></trkpt><trkpt lat="51.967274" lon="-1.923352"><ele>119.34</ele><time>2011-10-05T09:10:24Z</time></trkpt><trkpt lat="51.967380" lon="-1.923374"><ele>117.42</ele><time>2011-10-05T09:10:33Z</time></trkpt><trkpt lat="51.967489" lon="-1.923374"><ele>115.98</ele><time>2011-10-05T09:10:42Z</time></trkpt><trkpt lat="51.967597" lon="-1.923380"><ele>118.38</ele><time>2011-10-05T09:10:53Z</time></trkpt><trkpt lat="51.967662" lon="-1.923401"><ele>116.46</ele><time>2011-10-05T09:11:01Z</time></trkpt><trkpt lat="51.967712" lon="-1.923434"><ele>115.98</ele><time>2011-10-05T09:11:08Z</time></trkpt><trkpt lat="51.967817" lon="-1.923488"><ele>114.05</ele><time>2011-10-05T09:11:18Z</time></trkpt><trkpt lat="51.967884" lon="-1.923510"><ele>114.53</ele><time>2011-10-05T09:11:24Z</time></trkpt><trkpt lat="51.967908" lon="-1.923512"><ele>114.53</ele><time>2011-10-05T09:11:26Z</time></trkpt><trkpt lat="51.967987" lon="-1.923519"><ele>116.46</ele><time>2011-10-05T09:11:33Z</time></trkpt><trkpt lat="51.968093" lon="-1.923558"><ele>119.82</ele><time>2011-10-05T09:11:42Z</time></trkpt><trkpt lat="51.968201" lon="-1.923591"><ele>122.71</ele><time>2011-10-05T09:11:51Z</time></trkpt><trkpt lat="51.968338" lon="-1.923606"><ele>121.74</ele><time>2011-10-05T09:12:02Z</time></trkpt><trkpt lat="51.968400" lon="-1.923614"><ele>123.67</ele><time>2011-10-05T09:12:08Z</time></trkpt><trkpt lat="51.968498" lon="-1.923672"><ele>127.03</ele><time>2011-10-05T09:12:17Z</time></trkpt><trkpt lat="51.968618" lon="-1.923779"><ele>127.99</ele><time>2011-10-05T09:12:26Z</time></trkpt><trkpt lat="51.968661" lon="-1.923883"><ele>126.07</ele><time>2011-10-05T09:12:33Z</time></trkpt><trkpt lat="51.968689" lon="-1.924027"><ele>120.78</ele><time>2011-10-05T09:12:41Z</time></trkpt><trkpt lat="51.968702" lon="-1.924259"><ele>114.05</ele><time>2011-10-05T09:12:53Z</time></trkpt><trkpt lat="51.968723" lon="-1.924384"><ele>108.77</ele><time>2011-10-05T09:13:01Z</time></trkpt><trkpt lat="51.968726" lon="-1.924542"><ele>105.40</ele><time>2011-10-05T09:13:09Z</time></trkpt><trkpt lat="51.968733" lon="-1.924753"><ele>102.52</ele><time>2011-10-05T09:13:19Z</time></trkpt><trkpt lat="51.968726" lon="-1.924871"><ele>100.60</ele><time>2011-10-05T09:13:25Z</time></trkpt><trkpt lat="51.968743" lon="-1.925117"><ele>99.63</ele><time>2011-10-05T09:13:36Z</time></trkpt><trkpt lat="51.968753" lon="-1.925393"><ele>100.60</ele><time>2011-10-05T09:13:49Z</time></trkpt><trkpt lat="51.968775" lon="-1.925604"><ele>101.56</ele><time>2011-10-05T09:13:59Z</time></trkpt><trkpt lat="51.968806" lon="-1.925841"><ele>103.00</ele><time>2011-10-05T09:14:10Z</time></trkpt><trkpt lat="51.968826" lon="-1.926028"><ele>103.00</ele><time>2011-10-05T09:14:19Z</time></trkpt><trkpt lat="51.968872" lon="-1.926271"><ele>101.56</ele><time>2011-10-05T09:14:32Z</time></trkpt><trkpt lat="51.968923" lon="-1.926503"><ele>100.11</ele><time>2011-10-05T09:14:44Z</time></trkpt><trkpt lat="51.968969" lon="-1.926643"><ele>99.15</ele><time>2011-10-05T09:14:52Z</time></trkpt><trkpt lat="51.969047" lon="-1.926879"><ele>99.15</ele><time>2011-10-05T09:15:04Z</time></trkpt><trkpt lat="51.969054" lon="-1.926901"><ele>99.15</ele><time>2011-10-05T09:15:05Z</time></trkpt><trkpt lat="51.969111" lon="-1.927063"><ele>100.11</ele><time>2011-10-05T09:15:14Z</time></trkpt><trkpt lat="51.969172" lon="-1.927264"><ele>102.04</ele><time>2011-10-05T09:15:25Z</time></trkpt><trkpt lat="51.969251" lon="-1.927447"><ele>99.15</ele><time>2011-10-05T09:15:37Z</time></trkpt><trkpt lat="51.969336" lon="-1.927637"><ele>98.19</ele><time>2011-10-05T09:15:50Z</time></trkpt><trkpt lat="51.969391" lon="-1.927740"><ele>101.08</ele><time>2011-10-05T09:15:58Z</time></trkpt><trkpt lat="51.969394" lon="-1.927746"><ele>101.08</ele><time>2011-10-05T09:15:59Z</time></trkpt><trkpt lat="51.969476" lon="-1.927880"><ele>102.04</ele><time>2011-10-05T09:16:09Z</time></trkpt><trkpt lat="51.969480" lon="-1.927906"><ele>102.52</ele><time>2011-10-05T09:16:17Z</time></trkpt><trkpt lat="51.969459" lon="-1.927932"><ele>102.04</ele><time>2011-10-05T09:16:26Z</time></trkpt><trkpt lat="51.969441" lon="-1.927971"><ele>101.08</ele><time>2011-10-05T09:16:56Z</time></trkpt><trkpt lat="51.969421" lon="-1.927982"><ele>100.11</ele><time>2011-10-05T09:17:01Z</time></trkpt><trkpt lat="51.969364" lon="-1.928070"><ele>99.63</ele><time>2011-10-05T09:17:09Z</time></trkpt><trkpt lat="51.969296" lon="-1.928224"><ele>99.15</ele><time>2011-10-05T09:17:19Z</time></trkpt><trkpt lat="51.969246" lon="-1.928418"><ele>98.67</ele><time>2011-10-05T09:17:30Z</time></trkpt><trkpt lat="51.969191" lon="-1.928625"><ele>96.75</ele><time>2011-10-05T09:17:42Z</time></trkpt><trkpt lat="51.969132" lon="-1.928811"><ele>96.75</ele><time>2011-10-05T09:17:53Z</time></trkpt><trkpt lat="51.969083" lon="-1.928984"><ele>96.75</ele><time>2011-10-05T09:18:03Z</time></trkpt><trkpt lat="51.969052" lon="-1.929128"><ele>96.75</ele><time>2011-10-05T09:18:11Z</time></trkpt><trkpt lat="51.969008" lon="-1.929312"><ele>97.23</ele><time>2011-10-05T09:18:22Z</time></trkpt><trkpt lat="51.968977" lon="-1.929496"><ele>97.71</ele><time>2011-10-05T09:18:33Z</time></trkpt><trkpt lat="51.968937" lon="-1.929716"><ele>99.15</ele><time>2011-10-05T09:18:46Z</time></trkpt><trkpt lat="51.968911" lon="-1.929879"><ele>99.15</ele><time>2011-10-05T09:18:56Z</time></trkpt><trkpt lat="51.968901" lon="-1.929971"><ele>98.19</ele><time>2011-10-05T09:19:02Z</time></trkpt><trkpt lat="51.968902" lon="-1.930046"><ele>98.19</ele><time>2011-10-05T09:19:06Z</time></trkpt><trkpt lat="51.968892" lon="-1.930129"><ele>99.15</ele><time>2011-10-05T09:19:11Z</time></trkpt><trkpt lat="51.968869" lon="-1.930274"><ele>99.63</ele><time>2011-10-05T09:19:21Z</time></trkpt><trkpt lat="51.968825" lon="-1.930490"><ele>100.60</ele><time>2011-10-05T09:19:33Z</time></trkpt><trkpt lat="51.968796" lon="-1.930644"><ele>101.08</ele><time>2011-10-05T09:19:42Z</time></trkpt><trkpt lat="51.968749" lon="-1.930845"><ele>100.60</ele><time>2011-10-05T09:19:54Z</time></trkpt><trkpt lat="51.968733" lon="-1.931005"><ele>100.60</ele><time>2011-10-05T09:20:04Z</time></trkpt><trkpt lat="51.968739" lon="-1.931072"><ele>101.08</ele><time>2011-10-05T09:20:09Z</time></trkpt><trkpt lat="51.968732" lon="-1.931088"><ele>101.56</ele><time>2011-10-05T09:20:17Z</time></trkpt><trkpt lat="51.968735" lon="-1.931099"><ele>102.52</ele><time>2011-10-05T09:20:26Z</time></trkpt><trkpt lat="51.968737" lon="-1.931101"><ele>102.04</ele><time>2011-10-05T09:20:37Z</time></trkpt><trkpt lat="51.968665" lon="-1.931322"><ele>101.56</ele><time>2011-10-05T09:20:48Z</time></trkpt><trkpt lat="51.968583" lon="-1.931502"><ele>101.56</ele><time>2011-10-05T09:20:58Z</time></trkpt><trkpt lat="51.968491" lon="-1.931741"><ele>101.56</ele><time>2011-10-05T09:21:11Z</time></trkpt><trkpt lat="51.968420" lon="-1.931937"><ele>100.60</ele><time>2011-10-05T09:21:22Z</time></trkpt><trkpt lat="51.968377" lon="-1.932048"><ele>99.15</ele><time>2011-10-05T09:21:29Z</time></trkpt><trkpt lat="51.968347" lon="-1.932098"><ele>99.63</ele><time>2011-10-05T09:21:33Z</time></trkpt><trkpt lat="51.968231" lon="-1.932052"><ele>100.60</ele><time>2011-10-05T09:21:44Z</time></trkpt><trkpt lat="51.968140" lon="-1.931998"><ele>100.11</ele><time>2011-10-05T09:21:54Z</time></trkpt><trkpt lat="51.968056" lon="-1.931933"><ele>100.11</ele><time>2011-10-05T09:22:03Z</time></trkpt><trkpt lat="51.967973" lon="-1.931885"><ele>100.60</ele><time>2011-10-05T09:22:11Z</time></trkpt><trkpt lat="51.967885" lon="-1.931838"><ele>98.67</ele><time>2011-10-05T09:22:20Z</time></trkpt><trkpt lat="51.967791" lon="-1.931777"><ele>97.23</ele><time>2011-10-05T09:22:30Z</time></trkpt><trkpt lat="51.967733" lon="-1.931713"><ele>97.71</ele><time>2011-10-05T09:22:38Z</time></trkpt><trkpt lat="51.967659" lon="-1.931659"><ele>100.11</ele><time>2011-10-05T09:22:46Z</time></trkpt><trkpt lat="51.967563" lon="-1.931589"><ele>101.56</ele><time>2011-10-05T09:22:56Z</time></trkpt><trkpt lat="51.967516" lon="-1.931554"><ele>102.52</ele><time>2011-10-05T09:23:01Z</time></trkpt><trkpt lat="51.967457" lon="-1.931514"><ele>103.00</ele><time>2011-10-05T09:23:08Z</time></trkpt><trkpt lat="51.967373" lon="-1.931446"><ele>103.96</ele><time>2011-10-05T09:23:18Z</time></trkpt><trkpt lat="51.967260" lon="-1.931380"><ele>102.04</ele><time>2011-10-05T09:23:28Z</time></trkpt><trkpt lat="51.967161" lon="-1.931342"><ele>100.11</ele><time>2011-10-05T09:23:38Z</time></trkpt><trkpt lat="51.967110" lon="-1.931287"><ele>101.08</ele><time>2011-10-05T09:23:48Z</time></trkpt><trkpt lat="51.967058" lon="-1.931219"><ele>108.29</ele><time>2011-10-05T09:23:56Z</time></trkpt><trkpt lat="51.967014" lon="-1.931184"><ele>110.69</ele><time>2011-10-05T09:24:04Z</time></trkpt><trkpt lat="51.966985" lon="-1.931180"><ele>109.73</ele><time>2011-10-05T09:24:20Z</time></trkpt><trkpt lat="51.966974" lon="-1.931152"><ele>108.77</ele><time>2011-10-05T09:24:58Z</time></trkpt><trkpt lat="51.966888" lon="-1.931094"><ele>107.32</ele><time>2011-10-05T09:25:06Z</time></trkpt><trkpt lat="51.966787" lon="-1.931057"><ele>106.36</ele><time>2011-10-05T09:25:14Z</time></trkpt><trkpt lat="51.966659" lon="-1.930988"><ele>107.81</ele><time>2011-10-05T09:25:24Z</time></trkpt><trkpt lat="51.966592" lon="-1.930946"><ele>108.29</ele><time>2011-10-05T09:25:30Z</time></trkpt><trkpt lat="51.966524" lon="-1.930915"><ele>107.32</ele><time>2011-10-05T09:25:36Z</time></trkpt><trkpt lat="51.966420" lon="-1.930835"><ele>108.29</ele><time>2011-10-05T09:25:45Z</time></trkpt><trkpt lat="51.966317" lon="-1.930754"><ele>111.65</ele><time>2011-10-05T09:25:54Z</time></trkpt><trkpt lat="51.966224" lon="-1.930690"><ele>113.57</ele><time>2011-10-05T09:26:03Z</time></trkpt><trkpt lat="51.966138" lon="-1.930612"><ele>115.50</ele><time>2011-10-05T09:26:11Z</time></trkpt><trkpt lat="51.966052" lon="-1.930568"><ele>115.50</ele><time>2011-10-05T09:26:19Z</time></trkpt><trkpt lat="51.965975" lon="-1.930532"><ele>114.53</ele><time>2011-10-05T09:26:27Z</time></trkpt><trkpt lat="51.965901" lon="-1.930492"><ele>115.50</ele><time>2011-10-05T09:26:35Z</time></trkpt><trkpt lat="51.965780" lon="-1.930411"><ele>117.42</ele><time>2011-10-05T09:26:44Z</time></trkpt><trkpt lat="51.965693" lon="-1.930355"><ele>119.82</ele><time>2011-10-05T09:26:52Z</time></trkpt><trkpt lat="51.965609" lon="-1.930303"><ele>121.74</ele><time>2011-10-05T09:27:00Z</time></trkpt><trkpt lat="51.965533" lon="-1.930249"><ele>125.59</ele><time>2011-10-05T09:27:08Z</time></trkpt><trkpt lat="51.965470" lon="-1.930210"><ele>127.99</ele><time>2011-10-05T09:27:15Z</time></trkpt><trkpt lat="51.965370" lon="-1.930159"><ele>129.43</ele><time>2011-10-05T09:27:24Z</time></trkpt><trkpt lat="51.965247" lon="-1.930095"><ele>131.36</ele><time>2011-10-05T09:27:34Z</time></trkpt><trkpt lat="51.965127" lon="-1.930038"><ele>130.88</ele><time>2011-10-05T09:27:44Z</time></trkpt><trkpt lat="51.965059" lon="-1.929983"><ele>129.43</ele><time>2011-10-05T09:27:50Z</time></trkpt><trkpt lat="51.965017" lon="-1.929940"><ele>127.99</ele><time>2011-10-05T09:27:56Z</time></trkpt><trkpt lat="51.964925" lon="-1.929861"><ele>128.47</ele><time>2011-10-05T09:28:05Z</time></trkpt><trkpt lat="51.964868" lon="-1.929825"><ele>129.92</ele><time>2011-10-05T09:28:10Z</time></trkpt><trkpt lat="51.964771" lon="-1.929766"><ele>131.36</ele><time>2011-10-05T09:28:19Z</time></trkpt><trkpt lat="51.964744" lon="-1.929754"><ele>132.32</ele><time>2011-10-05T09:28:22Z</time></trkpt><trkpt lat="51.964647" lon="-1.929686"><ele>133.28</ele><time>2011-10-05T09:28:31Z</time></trkpt><trkpt lat="51.964554" lon="-1.929630"><ele>133.28</ele><time>2011-10-05T09:28:41Z</time></trkpt><trkpt lat="51.964491" lon="-1.929591"><ele>133.76</ele><time>2011-10-05T09:28:48Z</time></trkpt><trkpt lat="51.964403" lon="-1.929534"><ele>133.76</ele><time>2011-10-05T09:28:56Z</time></trkpt><trkpt lat="51.964301" lon="-1.929453"><ele>134.72</ele><time>2011-10-05T09:29:06Z</time></trkpt><trkpt lat="51.964204" lon="-1.929377"><ele>136.64</ele><time>2011-10-05T09:29:15Z</time></trkpt><trkpt lat="51.964093" lon="-1.929308"><ele>138.09</ele><time>2011-10-05T09:29:25Z</time></trkpt><trkpt lat="51.964028" lon="-1.929265"><ele>139.05</ele><time>2011-10-05T09:29:33Z</time></trkpt><trkpt lat="51.963962" lon="-1.929226"><ele>139.53</ele><time>2011-10-05T09:29:42Z</time></trkpt><trkpt lat="51.963858" lon="-1.929168"><ele>140.01</ele><time>2011-10-05T09:29:53Z</time></trkpt><trkpt lat="51.963773" lon="-1.929125"><ele>140.01</ele><time>2011-10-05T09:30:02Z</time></trkpt><trkpt lat="51.963720" lon="-1.929124"><ele>140.49</ele><time>2011-10-05T09:30:09Z</time></trkpt><trkpt lat="51.963712" lon="-1.929122"><ele>140.49</ele><time>2011-10-05T09:30:10Z</time></trkpt><trkpt lat="51.963685" lon="-1.929116"><ele>140.97</ele><time>2011-10-05T09:30:16Z</time></trkpt><trkpt lat="51.963639" lon="-1.929116"><ele>142.41</ele><time>2011-10-05T09:30:29Z</time></trkpt><trkpt lat="51.963605" lon="-1.929113"><ele>142.89</ele><time>2011-10-05T09:30:33Z</time></trkpt><trkpt lat="51.963550" lon="-1.929075"><ele>143.37</ele><time>2011-10-05T09:30:40Z</time></trkpt><trkpt lat="51.963490" lon="-1.929052"><ele>145.30</ele><time>2011-10-05T09:30:48Z</time></trkpt><trkpt lat="51.963448" lon="-1.929054"><ele>145.78</ele><time>2011-10-05T09:30:53Z</time></trkpt><trkpt lat="51.963352" lon="-1.929032"><ele>146.74</ele><time>2011-10-05T09:31:01Z</time></trkpt><trkpt lat="51.963148" lon="-1.928991"><ele>149.14</ele><time>2011-10-05T09:31:14Z</time></trkpt><trkpt lat="51.963008" lon="-1.928941"><ele>151.06</ele><time>2011-10-05T09:31:24Z</time></trkpt><trkpt lat="51.962883" lon="-1.928931"><ele>152.99</ele><time>2011-10-05T09:31:34Z</time></trkpt><trkpt lat="51.962771" lon="-1.928944"><ele>153.95</ele><time>2011-10-05T09:31:41Z</time></trkpt><trkpt lat="51.962658" lon="-1.928936"><ele>155.87</ele><time>2011-10-05T09:31:49Z</time></trkpt><trkpt lat="51.962627" lon="-1.928946"><ele>156.35</ele><time>2011-10-05T09:31:52Z</time></trkpt><trkpt lat="51.962623" lon="-1.929014"><ele>156.83</ele><time>2011-10-05T09:31:58Z</time></trkpt><trkpt lat="51.962628" lon="-1.929018"><ele>156.35</ele><time>2011-10-05T09:33:37Z</time></trkpt><trkpt lat="51.962547" lon="-1.928981"><ele>157.31</ele><time>2011-10-05T09:33:46Z</time></trkpt><trkpt lat="51.962469" lon="-1.928948"><ele>158.27</ele><time>2011-10-05T09:33:54Z</time></trkpt><trkpt lat="51.962414" lon="-1.928947"><ele>158.75</ele><time>2011-10-05T09:34:00Z</time></trkpt><trkpt lat="51.962354" lon="-1.928956"><ele>159.24</ele><time>2011-10-05T09:34:07Z</time></trkpt><trkpt lat="51.962293" lon="-1.928943"><ele>161.16</ele><time>2011-10-05T09:34:14Z</time></trkpt><trkpt lat="51.962255" lon="-1.928963"><ele>162.60</ele><time>2011-10-05T09:34:21Z</time></trkpt><trkpt lat="51.962205" lon="-1.928968"><ele>163.08</ele><time>2011-10-05T09:34:58Z</time></trkpt><trkpt lat="51.962152" lon="-1.928963"><ele>164.52</ele><time>2011-10-05T09:35:03Z</time></trkpt><trkpt lat="51.962082" lon="-1.928956"><ele>165.48</ele><time>2011-10-05T09:35:11Z</time></trkpt><trkpt lat="51.962007" lon="-1.928951"><ele>165.96</ele><time>2011-10-05T09:35:20Z</time></trkpt><trkpt lat="51.961942" lon="-1.928959"><ele>167.41</ele><time>2011-10-05T09:35:29Z</time></trkpt><trkpt lat="51.961891" lon="-1.928967"><ele>167.41</ele><time>2011-10-05T09:35:36Z</time></trkpt><trkpt lat="51.961835" lon="-1.928973"><ele>168.37</ele><time>2011-10-05T09:35:44Z</time></trkpt><trkpt lat="51.961788" lon="-1.928987"><ele>169.33</ele><time>2011-10-05T09:35:50Z</time></trkpt><trkpt lat="51.961721" lon="-1.929014"><ele>170.29</ele><time>2011-10-05T09:35:58Z</time></trkpt><trkpt lat="51.961703" lon="-1.929020"><ele>170.29</ele><time>2011-10-05T09:36:00Z</time></trkpt><trkpt lat="51.961652" lon="-1.929040"><ele>170.29</ele><time>2011-10-05T09:36:06Z</time></trkpt><trkpt lat="51.961570" lon="-1.929091"><ele>171.25</ele><time>2011-10-05T09:36:16Z</time></trkpt><trkpt lat="51.961506" lon="-1.929123"><ele>171.73</ele><time>2011-10-05T09:36:24Z</time></trkpt><trkpt lat="51.961468" lon="-1.929145"><ele>172.21</ele><time>2011-10-05T09:36:31Z</time></trkpt><trkpt lat="51.961420" lon="-1.929188"><ele>173.66</ele><time>2011-10-05T09:36:39Z</time></trkpt><trkpt lat="51.961365" lon="-1.929219"><ele>175.10</ele><time>2011-10-05T09:36:47Z</time></trkpt><trkpt lat="51.961303" lon="-1.929256"><ele>175.58</ele><time>2011-10-05T09:36:55Z</time></trkpt><trkpt lat="51.961235" lon="-1.929311"><ele>177.50</ele><time>2011-10-05T09:37:05Z</time></trkpt><trkpt lat="51.961180" lon="-1.929354"><ele>178.46</ele><time>2011-10-05T09:37:13Z</time></trkpt><trkpt lat="51.961131" lon="-1.929414"><ele>177.98</ele><time>2011-10-05T09:37:21Z</time></trkpt><trkpt lat="51.961073" lon="-1.929460"><ele>178.46</ele><time>2011-10-05T09:37:30Z</time></trkpt><trkpt lat="51.961021" lon="-1.929488"><ele>178.94</ele><time>2011-10-05T09:37:37Z</time></trkpt><trkpt lat="51.960979" lon="-1.929526"><ele>177.98</ele><time>2011-10-05T09:37:43Z</time></trkpt><trkpt lat="51.960912" lon="-1.929595"><ele>178.46</ele><time>2011-10-05T09:37:52Z</time></trkpt><trkpt lat="51.960847" lon="-1.929636"><ele>179.90</ele><time>2011-10-05T09:37:59Z</time></trkpt><trkpt lat="51.960808" lon="-1.929680"><ele>180.87</ele><time>2011-10-05T09:38:07Z</time></trkpt><trkpt lat="51.960787" lon="-1.929703"><ele>180.87</ele><time>2011-10-05T09:38:12Z</time></trkpt><trkpt lat="51.960759" lon="-1.929730"><ele>180.38</ele><time>2011-10-05T09:38:20Z</time></trkpt><trkpt lat="51.960708" lon="-1.929756"><ele>181.35</ele><time>2011-10-05T09:38:29Z</time></trkpt><trkpt lat="51.960641" lon="-1.929763"><ele>183.75</ele><time>2011-10-05T09:38:40Z</time></trkpt><trkpt lat="51.960607" lon="-1.929792"><ele>183.27</ele><time>2011-10-05T09:38:46Z</time></trkpt><trkpt lat="51.960552" lon="-1.929816"><ele>183.27</ele><time>2011-10-05T09:38:55Z</time></trkpt><trkpt lat="51.960496" lon="-1.929842"><ele>184.23</ele><time>2011-10-05T09:39:04Z</time></trkpt><trkpt lat="51.960476" lon="-1.929852"><ele>183.75</ele><time>2011-10-05T09:39:16Z</time></trkpt><trkpt lat="51.960349" lon="-1.929853"><ele>182.79</ele><time>2011-10-05T09:39:27Z</time></trkpt><trkpt lat="51.960276" lon="-1.929868"><ele>186.15</ele><time>2011-10-05T09:39:36Z</time></trkpt><trkpt lat="51.960218" lon="-1.929880"><ele>188.08</ele><time>2011-10-05T09:39:46Z</time></trkpt><trkpt lat="51.960167" lon="-1.929873"><ele>190.00</ele><time>2011-10-05T09:39:56Z</time></trkpt><trkpt lat="51.960093" lon="-1.929859"><ele>191.44</ele><time>2011-10-05T09:40:05Z</time></trkpt><trkpt lat="51.959997" lon="-1.929842"><ele>192.40</ele><time>2011-10-05T09:40:16Z</time></trkpt><trkpt lat="51.959934" lon="-1.929843"><ele>194.32</ele><time>2011-10-05T09:40:25Z</time></trkpt><trkpt lat="51.959836" lon="-1.929823"><ele>196.25</ele><time>2011-10-05T09:40:36Z</time></trkpt><trkpt lat="51.959740" lon="-1.929859"><ele>198.17</ele><time>2011-10-05T09:40:47Z</time></trkpt><trkpt lat="51.959699" lon="-1.929856"><ele>198.65</ele><time>2011-10-05T09:40:53Z</time></trkpt><trkpt lat="51.959690" lon="-1.929860"><ele>197.69</ele><time>2011-10-05T09:41:02Z</time></trkpt><trkpt lat="51.959619" lon="-1.929862"><ele>200.57</ele><time>2011-10-05T09:41:12Z</time></trkpt><trkpt lat="51.959545" lon="-1.929869"><ele>202.01</ele><time>2011-10-05T09:41:22Z</time></trkpt><trkpt lat="51.959525" lon="-1.929863"><ele>202.49</ele><time>2011-10-05T09:41:24Z</time></trkpt><trkpt lat="51.959442" lon="-1.929855"><ele>203.46</ele><time>2011-10-05T09:41:34Z</time></trkpt><trkpt lat="51.959389" lon="-1.929881"><ele>203.94</ele><time>2011-10-05T09:41:42Z</time></trkpt><trkpt lat="51.959346" lon="-1.929899"><ele>203.94</ele><time>2011-10-05T09:41:50Z</time></trkpt><trkpt lat="51.959302" lon="-1.929923"><ele>204.42</ele><time>2011-10-05T09:42:01Z</time></trkpt><trkpt lat="51.959228" lon="-1.929954"><ele>205.86</ele><time>2011-10-05T09:42:10Z</time></trkpt><trkpt lat="51.959159" lon="-1.929992"><ele>207.78</ele><time>2011-10-05T09:42:20Z</time></trkpt><trkpt lat="51.959089" lon="-1.930027"><ele>208.26</ele><time>2011-10-05T09:42:29Z</time></trkpt><trkpt lat="51.959021" lon="-1.930072"><ele>209.70</ele><time>2011-10-05T09:42:39Z</time></trkpt><trkpt lat="51.958991" lon="-1.930083"><ele>210.19</ele><time>2011-10-05T09:42:47Z</time></trkpt><trkpt lat="51.958939" lon="-1.930063"><ele>211.15</ele><time>2011-10-05T09:43:06Z</time></trkpt><trkpt lat="51.958891" lon="-1.930041"><ele>211.15</ele><time>2011-10-05T09:43:16Z</time></trkpt><trkpt lat="51.958821" lon="-1.930005"><ele>211.15</ele><time>2011-10-05T09:43:26Z</time></trkpt><trkpt lat="51.958749" lon="-1.929966"><ele>212.11</ele><time>2011-10-05T09:43:36Z</time></trkpt><trkpt lat="51.958689" lon="-1.929945"><ele>211.63</ele><time>2011-10-05T09:43:43Z</time></trkpt><trkpt lat="51.958610" lon="-1.929906"><ele>212.11</ele><time>2011-10-05T09:43:53Z</time></trkpt><trkpt lat="51.958554" lon="-1.929874"><ele>213.07</ele><time>2011-10-05T09:44:01Z</time></trkpt><trkpt lat="51.958472" lon="-1.929831"><ele>214.51</ele><time>2011-10-05T09:44:11Z</time></trkpt><trkpt lat="51.958412" lon="-1.929806"><ele>214.03</ele><time>2011-10-05T09:44:18Z</time></trkpt><trkpt lat="51.958345" lon="-1.929771"><ele>214.03</ele><time>2011-10-05T09:44:27Z</time></trkpt><trkpt lat="51.958274" lon="-1.929734"><ele>214.99</ele><time>2011-10-05T09:44:35Z</time></trkpt><trkpt lat="51.958192" lon="-1.929676"><ele>215.95</ele><time>2011-10-05T09:44:45Z</time></trkpt><trkpt lat="51.958110" lon="-1.929630"><ele>216.43</ele><time>2011-10-05T09:44:56Z</time></trkpt><trkpt lat="51.958044" lon="-1.929583"><ele>216.43</ele><time>2011-10-05T09:45:04Z</time></trkpt><trkpt lat="51.957962" lon="-1.929532"><ele>216.91</ele><time>2011-10-05T09:45:14Z</time></trkpt><trkpt lat="51.957929" lon="-1.929505"><ele>216.91</ele><time>2011-10-05T09:45:18Z</time></trkpt><trkpt lat="51.957826" lon="-1.929437"><ele>218.36</ele><time>2011-10-05T09:45:28Z</time></trkpt><trkpt lat="51.957761" lon="-1.929400"><ele>217.88</ele><time>2011-10-05T09:45:35Z</time></trkpt><trkpt lat="51.957652" lon="-1.929342"><ele>215.47</ele><time>2011-10-05T09:45:47Z</time></trkpt><trkpt lat="51.957580" lon="-1.929257"><ele>217.40</ele><time>2011-10-05T09:45:55Z</time></trkpt><trkpt lat="51.957490" lon="-1.929179"><ele>219.80</ele><time>2011-10-05T09:46:05Z</time></trkpt><trkpt lat="51.957419" lon="-1.929120"><ele>220.76</ele><time>2011-10-05T09:46:14Z</time></trkpt><trkpt lat="51.957353" lon="-1.929064"><ele>221.72</ele><time>2011-10-05T09:46:22Z</time></trkpt><trkpt lat="51.957272" lon="-1.928989"><ele>222.20</ele><time>2011-10-05T09:46:32Z</time></trkpt><trkpt lat="51.957201" lon="-1.928924"><ele>222.68</ele><time>2011-10-05T09:46:41Z</time></trkpt><trkpt lat="51.957135" lon="-1.928847"><ele>222.68</ele><time>2011-10-05T09:46:50Z</time></trkpt><trkpt lat="51.957082" lon="-1.928754"><ele>221.24</ele><time>2011-10-05T09:46:58Z</time></trkpt><trkpt lat="51.957053" lon="-1.928624"><ele>219.32</ele><time>2011-10-05T09:47:07Z</time></trkpt><trkpt lat="51.957050" lon="-1.928569"><ele>217.40</ele><time>2011-10-05T09:47:17Z</time></trkpt><trkpt lat="51.957051" lon="-1.928570"><ele>217.40</ele><time>2011-10-05T09:47:38Z</time></trkpt><trkpt lat="51.957020" lon="-1.928552"><ele>216.91</ele><time>2011-10-05T09:47:42Z</time></trkpt><trkpt lat="51.956969" lon="-1.928438"><ele>216.43</ele><time>2011-10-05T09:47:51Z</time></trkpt><trkpt lat="51.956938" lon="-1.928307"><ele>216.91</ele><time>2011-10-05T09:48:00Z</time></trkpt><trkpt lat="51.956880" lon="-1.928201"><ele>216.43</ele><time>2011-10-05T09:48:08Z</time></trkpt><trkpt lat="51.956834" lon="-1.928017"><ele>216.43</ele><time>2011-10-05T09:48:19Z</time></trkpt><trkpt lat="51.956812" lon="-1.927876"><ele>217.40</ele><time>2011-10-05T09:48:28Z</time></trkpt><trkpt lat="51.956837" lon="-1.927697"><ele>219.32</ele><time>2011-10-05T09:48:37Z</time></trkpt><trkpt lat="51.956831" lon="-1.927492"><ele>218.84</ele><time>2011-10-05T09:48:48Z</time></trkpt><trkpt lat="51.956792" lon="-1.927320"><ele>217.88</ele><time>2011-10-05T09:48:58Z</time></trkpt><trkpt lat="51.956793" lon="-1.927189"><ele>218.84</ele><time>2011-10-05T09:49:06Z</time></trkpt><trkpt lat="51.956871" lon="-1.927025"><ele>219.32</ele><time>2011-10-05T09:49:16Z</time></trkpt><trkpt lat="51.956877" lon="-1.926867"><ele>217.88</ele><time>2011-10-05T09:49:25Z</time></trkpt><trkpt lat="51.956860" lon="-1.926769"><ele>217.40</ele><time>2011-10-05T09:49:32Z</time></trkpt><trkpt lat="51.956839" lon="-1.926744"><ele>216.43</ele><time>2011-10-05T09:49:38Z</time></trkpt><trkpt lat="51.956806" lon="-1.926701"><ele>214.03</ele><time>2011-10-05T09:50:49Z</time></trkpt><trkpt lat="51.956741" lon="-1.926520"><ele>213.55</ele><time>2011-10-05T09:51:01Z</time></trkpt><trkpt lat="51.956679" lon="-1.926443"><ele>213.55</ele><time>2011-10-05T09:51:11Z</time></trkpt><trkpt lat="51.956577" lon="-1.926336"><ele>213.55</ele><time>2011-10-05T09:51:24Z</time></trkpt><trkpt lat="51.956471" lon="-1.926239"><ele>214.51</ele><time>2011-10-05T09:51:36Z</time></trkpt><trkpt lat="51.956360" lon="-1.926155"><ele>216.43</ele><time>2011-10-05T09:51:48Z</time></trkpt><trkpt lat="51.956265" lon="-1.926066"><ele>218.36</ele><time>2011-10-05T09:52:03Z</time></trkpt><trkpt lat="51.956193" lon="-1.925988"><ele>218.84</ele><time>2011-10-05T09:52:15Z</time></trkpt><trkpt lat="51.956085" lon="-1.925841"><ele>222.68</ele><time>2011-10-05T09:52:30Z</time></trkpt><trkpt lat="51.956071" lon="-1.925835"><ele>222.20</ele><time>2011-10-05T09:52:41Z</time></trkpt><trkpt lat="51.956051" lon="-1.925811"><ele>222.68</ele><time>2011-10-05T09:52:58Z</time></trkpt><trkpt lat="51.955970" lon="-1.925686"><ele>223.16</ele><time>2011-10-05T09:53:08Z</time></trkpt><trkpt lat="51.955921" lon="-1.925627"><ele>223.16</ele><time>2011-10-05T09:53:13Z</time></trkpt><trkpt lat="51.955842" lon="-1.925583"><ele>222.20</ele><time>2011-10-05T09:53:20Z</time></trkpt><trkpt lat="51.955776" lon="-1.925524"><ele>222.20</ele><time>2011-10-05T09:53:28Z</time></trkpt><trkpt lat="51.955716" lon="-1.925475"><ele>221.72</ele><time>2011-10-05T09:53:35Z</time></trkpt><trkpt lat="51.955650" lon="-1.925426"><ele>221.24</ele><time>2011-10-05T09:53:42Z</time></trkpt><trkpt lat="51.955570" lon="-1.925368"><ele>221.24</ele><time>2011-10-05T09:53:51Z</time></trkpt><trkpt lat="51.955512" lon="-1.925314"><ele>221.24</ele><time>2011-10-05T09:53:58Z</time></trkpt><trkpt lat="51.955437" lon="-1.925268"><ele>221.72</ele><time>2011-10-05T09:54:07Z</time></trkpt><trkpt lat="51.955363" lon="-1.925240"><ele>224.12</ele><time>2011-10-05T09:54:18Z</time></trkpt><trkpt lat="51.955284" lon="-1.925229"><ele>225.57</ele><time>2011-10-05T09:54:26Z</time></trkpt><trkpt lat="51.955275" lon="-1.925228"><ele>225.57</ele><time>2011-10-05T09:54:27Z</time></trkpt><trkpt lat="51.955199" lon="-1.925242"><ele>227.01</ele><time>2011-10-05T09:54:35Z</time></trkpt><trkpt lat="51.955141" lon="-1.925276"><ele>228.93</ele><time>2011-10-05T09:54:44Z</time></trkpt><trkpt lat="51.955089" lon="-1.925294"><ele>229.41</ele><time>2011-10-05T09:54:52Z</time></trkpt><trkpt lat="51.955020" lon="-1.925331"><ele>231.81</ele><time>2011-10-05T09:55:02Z</time></trkpt><trkpt lat="51.954963" lon="-1.925359"><ele>232.30</ele><time>2011-10-05T09:55:09Z</time></trkpt><trkpt lat="51.954938" lon="-1.925392"><ele>232.30</ele><time>2011-10-05T09:55:15Z</time></trkpt><trkpt lat="51.954931" lon="-1.925409"><ele>231.81</ele><time>2011-10-05T09:55:17Z</time></trkpt><trkpt lat="51.954904" lon="-1.925468"><ele>232.30</ele><time>2011-10-05T09:55:24Z</time></trkpt><trkpt lat="51.954874" lon="-1.925530"><ele>232.78</ele><time>2011-10-05T09:55:31Z</time></trkpt><trkpt lat="51.954847" lon="-1.925583"><ele>232.78</ele><time>2011-10-05T09:55:38Z</time></trkpt><trkpt lat="51.954807" lon="-1.925621"><ele>233.26</ele><time>2011-10-05T09:55:45Z</time></trkpt><trkpt lat="51.954799" lon="-1.925621"><ele>233.26</ele><time>2011-10-05T09:55:46Z</time></trkpt><trkpt lat="51.954737" lon="-1.925600"><ele>233.26</ele><time>2011-10-05T09:55:54Z</time></trkpt><trkpt lat="51.954684" lon="-1.925570"><ele>233.26</ele><time>2011-10-05T09:56:01Z</time></trkpt><trkpt lat="51.954647" lon="-1.925531"><ele>233.74</ele><time>2011-10-05T09:56:08Z</time></trkpt><trkpt lat="51.954598" lon="-1.925501"><ele>233.74</ele><time>2011-10-05T09:56:14Z</time></trkpt><trkpt lat="51.954524" lon="-1.925470"><ele>234.70</ele><time>2011-10-05T09:56:22Z</time></trkpt><trkpt lat="51.954466" lon="-1.925428"><ele>235.18</ele><time>2011-10-05T09:56:29Z</time></trkpt><trkpt lat="51.954388" lon="-1.925376"><ele>235.18</ele><time>2011-10-05T09:56:38Z</time></trkpt><trkpt lat="51.954302" lon="-1.925335"><ele>235.18</ele><time>2011-10-05T09:56:47Z</time></trkpt><trkpt lat="51.954222" lon="-1.925283"><ele>235.18</ele><time>2011-10-05T09:56:56Z</time></trkpt><trkpt lat="51.954132" lon="-1.925228"><ele>234.70</ele><time>2011-10-05T09:57:05Z</time></trkpt><trkpt lat="51.954059" lon="-1.925180"><ele>234.22</ele><time>2011-10-05T09:57:12Z</time></trkpt><trkpt lat="51.953976" lon="-1.925118"><ele>234.22</ele><time>2011-10-05T09:57:21Z</time></trkpt><trkpt lat="51.953885" lon="-1.925042"><ele>234.22</ele><time>2011-10-05T09:57:31Z</time></trkpt><trkpt lat="51.953808" lon="-1.924990"><ele>234.70</ele><time>2011-10-05T09:57:39Z</time></trkpt><trkpt lat="51.953717" lon="-1.924932"><ele>234.70</ele><time>2011-10-05T09:57:48Z</time></trkpt><trkpt lat="51.953641" lon="-1.924876"><ele>235.18</ele><time>2011-10-05T09:57:56Z</time></trkpt><trkpt lat="51.953603" lon="-1.924843"><ele>235.18</ele><time>2011-10-05T09:58:00Z</time></trkpt><trkpt lat="51.953511" lon="-1.924776"><ele>234.70</ele><time>2011-10-05T09:58:10Z</time></trkpt><trkpt lat="51.953441" lon="-1.924722"><ele>234.22</ele><time>2011-10-05T09:58:17Z</time></trkpt><trkpt lat="51.953378" lon="-1.924653"><ele>234.22</ele><time>2011-10-05T09:58:24Z</time></trkpt><trkpt lat="51.953289" lon="-1.924585"><ele>233.74</ele><time>2011-10-05T09:58:34Z</time></trkpt><trkpt lat="51.953209" lon="-1.924513"><ele>233.74</ele><time>2011-10-05T09:58:43Z</time></trkpt><trkpt lat="51.953154" lon="-1.924459"><ele>234.22</ele><time>2011-10-05T09:58:49Z</time></trkpt><trkpt lat="51.953097" lon="-1.924373"><ele>234.22</ele><time>2011-10-05T09:58:57Z</time></trkpt><trkpt lat="51.953022" lon="-1.924281"><ele>233.26</ele><time>2011-10-05T09:59:07Z</time></trkpt><trkpt lat="51.952965" lon="-1.924214"><ele>232.78</ele><time>2011-10-05T09:59:14Z</time></trkpt><trkpt lat="51.952889" lon="-1.924132"><ele>232.30</ele><time>2011-10-05T09:59:23Z</time></trkpt><trkpt lat="51.952833" lon="-1.924057"><ele>231.81</ele><time>2011-10-05T09:59:31Z</time></trkpt><trkpt lat="51.952778" lon="-1.923966"><ele>232.30</ele><time>2011-10-05T09:59:39Z</time></trkpt><trkpt lat="51.952713" lon="-1.923855"><ele>231.81</ele><time>2011-10-05T09:59:48Z</time></trkpt><trkpt lat="51.952652" lon="-1.923742"><ele>231.33</ele><time>2011-10-05T09:59:57Z</time></trkpt><trkpt lat="51.952594" lon="-1.923625"><ele>229.89</ele><time>2011-10-05T10:00:07Z</time></trkpt><trkpt lat="51.952569" lon="-1.923486"><ele>229.41</ele><time>2011-10-05T10:00:16Z</time></trkpt><trkpt lat="51.952516" lon="-1.923366"><ele>227.97</ele><time>2011-10-05T10:00:24Z</time></trkpt><trkpt lat="51.952472" lon="-1.923259"><ele>225.57</ele><time>2011-10-05T10:00:32Z</time></trkpt><trkpt lat="51.952432" lon="-1.923128"><ele>224.12</ele><time>2011-10-05T10:00:41Z</time></trkpt><trkpt lat="51.952395" lon="-1.923002"><ele>223.64</ele><time>2011-10-05T10:00:50Z</time></trkpt><trkpt lat="51.952358" lon="-1.922866"><ele>222.68</ele><time>2011-10-05T10:00:59Z</time></trkpt><trkpt lat="51.952327" lon="-1.922766"><ele>222.20</ele><time>2011-10-05T10:01:07Z</time></trkpt><trkpt lat="51.952285" lon="-1.922628"><ele>221.24</ele><time>2011-10-05T10:01:16Z</time></trkpt><trkpt lat="51.952249" lon="-1.922529"><ele>219.32</ele><time>2011-10-05T10:01:23Z</time></trkpt><trkpt lat="51.952218" lon="-1.922426"><ele>218.36</ele><time>2011-10-05T10:01:30Z</time></trkpt><trkpt lat="51.952180" lon="-1.922290"><ele>216.43</ele><time>2011-10-05T10:01:38Z</time></trkpt><trkpt lat="51.952171" lon="-1.922120"><ele>214.51</ele><time>2011-10-05T10:01:47Z</time></trkpt><trkpt lat="51.952150" lon="-1.921994"><ele>212.59</ele><time>2011-10-05T10:01:54Z</time></trkpt><trkpt lat="51.952131" lon="-1.921851"><ele>211.63</ele><time>2011-10-05T10:02:03Z</time></trkpt><trkpt lat="51.952118" lon="-1.921730"><ele>210.67</ele><time>2011-10-05T10:02:11Z</time></trkpt><trkpt lat="51.952100" lon="-1.921609"><ele>209.22</ele><time>2011-10-05T10:02:19Z</time></trkpt><trkpt lat="51.952079" lon="-1.921471"><ele>207.78</ele><time>2011-10-05T10:02:27Z</time></trkpt><trkpt lat="51.952056" lon="-1.921328"><ele>205.38</ele><time>2011-10-05T10:02:36Z</time></trkpt><trkpt lat="51.952038" lon="-1.921186"><ele>204.90</ele><time>2011-10-05T10:02:45Z</time></trkpt><trkpt lat="51.952032" lon="-1.921036"><ele>204.42</ele><time>2011-10-05T10:02:54Z</time></trkpt><trkpt lat="51.952030" lon="-1.920885"><ele>205.86</ele><time>2011-10-05T10:03:03Z</time></trkpt><trkpt lat="51.952009" lon="-1.920775"><ele>204.90</ele><time>2011-10-05T10:03:10Z</time></trkpt><trkpt lat="51.951990" lon="-1.920646"><ele>202.98</ele><time>2011-10-05T10:03:18Z</time></trkpt><trkpt lat="51.951963" lon="-1.920499"><ele>200.09</ele><time>2011-10-05T10:03:27Z</time></trkpt><trkpt lat="51.951937" lon="-1.920356"><ele>198.17</ele><time>2011-10-05T10:03:36Z</time></trkpt><trkpt lat="51.951912" lon="-1.920202"><ele>196.25</ele><time>2011-10-05T10:03:45Z</time></trkpt><trkpt lat="51.951895" lon="-1.920160"><ele>198.17</ele><time>2011-10-05T10:03:52Z</time></trkpt><trkpt lat="51.951902" lon="-1.920143"><ele>199.61</ele><time>2011-10-05T10:04:08Z</time></trkpt><trkpt lat="51.951883" lon="-1.920027"><ele>202.01</ele><time>2011-10-05T10:04:15Z</time></trkpt><trkpt lat="51.951860" lon="-1.919895"><ele>203.46</ele><time>2011-10-05T10:04:23Z</time></trkpt><trkpt lat="51.951826" lon="-1.919732"><ele>206.34</ele><time>2011-10-05T10:04:33Z</time></trkpt><trkpt lat="51.951795" lon="-1.919576"><ele>207.78</ele><time>2011-10-05T10:04:43Z</time></trkpt><trkpt lat="51.951761" lon="-1.919445"><ele>208.74</ele><time>2011-10-05T10:04:51Z</time></trkpt><trkpt lat="51.951737" lon="-1.919316"><ele>209.22</ele><time>2011-10-05T10:04:59Z</time></trkpt><trkpt lat="51.951708" lon="-1.919196"><ele>210.19</ele><time>2011-10-05T10:05:07Z</time></trkpt><trkpt lat="51.951675" lon="-1.919060"><ele>212.11</ele><time>2011-10-05T10:05:17Z</time></trkpt><trkpt lat="51.951639" lon="-1.918943"><ele>213.55</ele><time>2011-10-05T10:05:26Z</time></trkpt><trkpt lat="51.951615" lon="-1.918833"><ele>214.99</ele><time>2011-10-05T10:05:36Z</time></trkpt><trkpt lat="51.951581" lon="-1.918738"><ele>215.47</ele><time>2011-10-05T10:05:44Z</time></trkpt><trkpt lat="51.951553" lon="-1.918617"><ele>215.95</ele><time>2011-10-05T10:05:52Z</time></trkpt><trkpt lat="51.951516" lon="-1.918475"><ele>215.47</ele><time>2011-10-05T10:06:03Z</time></trkpt><trkpt lat="51.951473" lon="-1.918372"><ele>213.07</ele><time>2011-10-05T10:06:11Z</time></trkpt><trkpt lat="51.951471" lon="-1.918357"><ele>213.07</ele><time>2011-10-05T10:06:12Z</time></trkpt><trkpt lat="51.951443" lon="-1.918234"><ele>210.19</ele><time>2011-10-05T10:06:20Z</time></trkpt><trkpt lat="51.951422" lon="-1.918100"><ele>211.15</ele><time>2011-10-05T10:06:29Z</time></trkpt><trkpt lat="51.951414" lon="-1.918062"><ele>211.63</ele><time>2011-10-05T10:06:32Z</time></trkpt><trkpt lat="51.951393" lon="-1.918009"><ele>210.67</ele><time>2011-10-05T10:06:38Z</time></trkpt><trkpt lat="51.951384" lon="-1.917983"><ele>208.74</ele><time>2011-10-05T10:06:48Z</time></trkpt><trkpt lat="51.951360" lon="-1.918042"><ele>209.22</ele><time>2011-10-05T10:07:26Z</time></trkpt><trkpt lat="51.951343" lon="-1.918027"><ele>207.78</ele><time>2011-10-05T10:07:40Z</time></trkpt><trkpt lat="51.951336" lon="-1.918042"><ele>207.78</ele><time>2011-10-05T10:07:52Z</time></trkpt><trkpt lat="51.951307" lon="-1.917926"><ele>207.78</ele><time>2011-10-05T10:08:00Z</time></trkpt><trkpt lat="51.951299" lon="-1.917716"><ele>208.74</ele><time>2011-10-05T10:08:11Z</time></trkpt><trkpt lat="51.951278" lon="-1.917625"><ele>208.74</ele><time>2011-10-05T10:08:18Z</time></trkpt><trkpt lat="51.951275" lon="-1.917560"><ele>208.74</ele><time>2011-10-05T10:08:23Z</time></trkpt><trkpt lat="51.951252" lon="-1.917375"><ele>210.19</ele><time>2011-10-05T10:08:34Z</time></trkpt><trkpt lat="51.951251" lon="-1.917303"><ele>211.15</ele><time>2011-10-05T10:08:38Z</time></trkpt><trkpt lat="51.951261" lon="-1.917149"><ele>210.67</ele><time>2011-10-05T10:08:49Z</time></trkpt><trkpt lat="51.951258" lon="-1.917129"><ele>210.19</ele><time>2011-10-05T10:08:51Z</time></trkpt><trkpt lat="51.951238" lon="-1.917084"><ele>210.19</ele><time>2011-10-05T10:08:55Z</time></trkpt><trkpt lat="51.951198" lon="-1.916892"><ele>211.63</ele><time>2011-10-05T10:09:05Z</time></trkpt><trkpt lat="51.951185" lon="-1.916739"><ele>213.55</ele><time>2011-10-05T10:09:13Z</time></trkpt><trkpt lat="51.951192" lon="-1.916613"><ele>217.40</ele><time>2011-10-05T10:09:21Z</time></trkpt><trkpt lat="51.951192" lon="-1.916601"><ele>217.88</ele><time>2011-10-05T10:09:22Z</time></trkpt><trkpt lat="51.951167" lon="-1.916463"><ele>219.80</ele><time>2011-10-05T10:09:33Z</time></trkpt><trkpt lat="51.951132" lon="-1.916364"><ele>220.76</ele><time>2011-10-05T10:09:42Z</time></trkpt><trkpt lat="51.951124" lon="-1.916336"><ele>219.80</ele><time>2011-10-05T10:09:50Z</time></trkpt><trkpt lat="51.951110" lon="-1.916346"><ele>218.84</ele><time>2011-10-05T10:10:09Z</time></trkpt><trkpt lat="51.951088" lon="-1.916350"><ele>218.36</ele><time>2011-10-05T10:10:13Z</time></trkpt><trkpt lat="51.951015" lon="-1.916186"><ele>216.91</ele><time>2011-10-05T10:10:23Z</time></trkpt><trkpt lat="51.950965" lon="-1.916137"><ele>216.43</ele><time>2011-10-05T10:10:31Z</time></trkpt><trkpt lat="51.950911" lon="-1.916106"><ele>215.95</ele><time>2011-10-05T10:10:39Z</time></trkpt><trkpt lat="51.950884" lon="-1.916082"><ele>216.43</ele><time>2011-10-05T10:10:44Z</time></trkpt><trkpt lat="51.950827" lon="-1.916033"><ele>215.47</ele><time>2011-10-05T10:10:51Z</time></trkpt><trkpt lat="51.950727" lon="-1.915989"><ele>214.03</ele><time>2011-10-05T10:11:02Z</time></trkpt><trkpt lat="51.950636" lon="-1.915957"><ele>214.03</ele><time>2011-10-05T10:11:12Z</time></trkpt><trkpt lat="51.950572" lon="-1.915923"><ele>213.07</ele><time>2011-10-05T10:11:18Z</time></trkpt><trkpt lat="51.950483" lon="-1.915888"><ele>212.59</ele><time>2011-10-05T10:11:28Z</time></trkpt><trkpt lat="51.950413" lon="-1.915852"><ele>212.59</ele><time>2011-10-05T10:11:35Z</time></trkpt><trkpt lat="51.950304" lon="-1.915805"><ele>211.63</ele><time>2011-10-05T10:11:45Z</time></trkpt><trkpt lat="51.950201" lon="-1.915723"><ele>212.11</ele><time>2011-10-05T10:11:56Z</time></trkpt><trkpt lat="51.950119" lon="-1.915660"><ele>213.55</ele><time>2011-10-05T10:12:05Z</time></trkpt><trkpt lat="51.950079" lon="-1.915606"><ele>216.43</ele><time>2011-10-05T10:12:12Z</time></trkpt><trkpt lat="51.950009" lon="-1.915522"><ele>217.40</ele><time>2011-10-05T10:12:21Z</time></trkpt><trkpt lat="51.949948" lon="-1.915459"><ele>214.99</ele><time>2011-10-05T10:12:30Z</time></trkpt><trkpt lat="51.949909" lon="-1.915419"><ele>213.55</ele><time>2011-10-05T10:12:36Z</time></trkpt><trkpt lat="51.949839" lon="-1.915342"><ele>212.59</ele><time>2011-10-05T10:12:44Z</time></trkpt><trkpt lat="51.949769" lon="-1.915191"><ele>212.59</ele><time>2011-10-05T10:12:55Z</time></trkpt><trkpt lat="51.949696" lon="-1.915054"><ele>213.55</ele><time>2011-10-05T10:13:06Z</time></trkpt><trkpt lat="51.949625" lon="-1.914956"><ele>214.99</ele><time>2011-10-05T10:13:15Z</time></trkpt><trkpt lat="51.949534" lon="-1.914839"><ele>215.47</ele><time>2011-10-05T10:13:26Z</time></trkpt><trkpt lat="51.949468" lon="-1.914692"><ele>216.91</ele><time>2011-10-05T10:13:35Z</time></trkpt><trkpt lat="51.949412" lon="-1.914489"><ele>217.88</ele><time>2011-10-05T10:13:47Z</time></trkpt><trkpt lat="51.949362" lon="-1.914366"><ele>221.24</ele><time>2011-10-05T10:13:56Z</time></trkpt><trkpt lat="51.949308" lon="-1.914212"><ele>224.61</ele><time>2011-10-05T10:14:07Z</time></trkpt><trkpt lat="51.949256" lon="-1.914022"><ele>227.49</ele><time>2011-10-05T10:14:18Z</time></trkpt><trkpt lat="51.949223" lon="-1.913820"><ele>227.97</ele><time>2011-10-05T10:14:29Z</time></trkpt><trkpt lat="51.949198" lon="-1.913610"><ele>229.41</ele><time>2011-10-05T10:14:40Z</time></trkpt><trkpt lat="51.949177" lon="-1.913404"><ele>230.85</ele><time>2011-10-05T10:14:51Z</time></trkpt><trkpt lat="51.949116" lon="-1.913217"><ele>231.81</ele><time>2011-10-05T10:15:01Z</time></trkpt><trkpt lat="51.949063" lon="-1.913065"><ele>233.74</ele><time>2011-10-05T10:15:11Z</time></trkpt><trkpt lat="51.949030" lon="-1.912913"><ele>234.22</ele><time>2011-10-05T10:15:20Z</time></trkpt><trkpt lat="51.948978" lon="-1.912738"><ele>235.18</ele><time>2011-10-05T10:15:30Z</time></trkpt><trkpt lat="51.948928" lon="-1.912658"><ele>235.66</ele><time>2011-10-05T10:15:37Z</time></trkpt><trkpt lat="51.948866" lon="-1.912610"><ele>235.66</ele><time>2011-10-05T10:15:44Z</time></trkpt><trkpt lat="51.948806" lon="-1.912570"><ele>234.70</ele><time>2011-10-05T10:15:52Z</time></trkpt><trkpt lat="51.948797" lon="-1.912603"><ele>234.70</ele><time>2011-10-05T10:16:08Z</time></trkpt><trkpt lat="51.948806" lon="-1.912599"><ele>232.78</ele><time>2011-10-05T10:16:27Z</time></trkpt><trkpt lat="51.948821" lon="-1.912570"><ele>233.26</ele><time>2011-10-05T10:16:39Z</time></trkpt><trkpt lat="51.948818" lon="-1.912573"><ele>233.26</ele><time>2011-10-05T10:16:58Z</time></trkpt><trkpt lat="51.948805" lon="-1.912602"><ele>233.26</ele><time>2011-10-05T10:17:10Z</time></trkpt><trkpt lat="51.948810" lon="-1.912606"><ele>232.30</ele><time>2011-10-05T10:17:30Z</time></trkpt><trkpt lat="51.948828" lon="-1.912594"><ele>232.30</ele><time>2011-10-05T10:17:37Z</time></trkpt><trkpt lat="51.948817" lon="-1.912582"><ele>233.26</ele><time>2011-10-05T10:17:58Z</time></trkpt><trkpt lat="51.948796" lon="-1.912582"><ele>234.22</ele><time>2011-10-05T10:18:06Z</time></trkpt><trkpt lat="51.948785" lon="-1.912616"><ele>234.22</ele><time>2011-10-05T10:18:18Z</time></trkpt><trkpt lat="51.948786" lon="-1.912617"><ele>233.74</ele><time>2011-10-05T10:18:34Z</time></trkpt><trkpt lat="51.948790" lon="-1.912609"><ele>233.74</ele><time>2011-10-05T10:18:41Z</time></trkpt><trkpt lat="51.948798" lon="-1.912599"><ele>233.26</ele><time>2011-10-05T10:18:50Z</time></trkpt><trkpt lat="51.948807" lon="-1.912587"><ele>231.81</ele><time>2011-10-05T10:19:10Z</time></trkpt><trkpt lat="51.948805" lon="-1.912584"><ele>230.85</ele><time>2011-10-05T10:19:30Z</time></trkpt><trkpt lat="51.948808" lon="-1.912583"><ele>230.37</ele><time>2011-10-05T10:19:53Z</time></trkpt><trkpt lat="51.948799" lon="-1.912579"><ele>230.37</ele><time>2011-10-05T10:20:10Z</time></trkpt><trkpt lat="51.948803" lon="-1.912589"><ele>230.85</ele><time>2011-10-05T10:20:15Z</time></trkpt><trkpt lat="51.948782" lon="-1.912641"><ele>230.85</ele><time>2011-10-05T10:20:59Z</time></trkpt><trkpt lat="51.948757" lon="-1.912675"><ele>229.89</ele><time>2011-10-05T10:21:08Z</time></trkpt><trkpt lat="51.948766" lon="-1.912661"><ele>228.93</ele><time>2011-10-05T10:21:21Z</time></trkpt><trkpt lat="51.948811" lon="-1.912610"><ele>229.89</ele><time>2011-10-05T10:21:25Z</time></trkpt><trkpt lat="51.948821" lon="-1.912583"><ele>230.37</ele><time>2011-10-05T10:21:32Z</time></trkpt><trkpt lat="51.948765" lon="-1.912698"><ele>231.33</ele><time>2011-10-05T10:21:42Z</time></trkpt><trkpt lat="51.948769" lon="-1.912680"><ele>230.37</ele><time>2011-10-05T10:21:58Z</time></trkpt><trkpt lat="51.948823" lon="-1.912600"><ele>227.01</ele><time>2011-10-05T10:22:06Z</time></trkpt><trkpt lat="51.948812" lon="-1.912600"><ele>227.49</ele><time>2011-10-05T10:22:19Z</time></trkpt><trkpt lat="51.948803" lon="-1.912609"><ele>228.93</ele><time>2011-10-05T10:22:31Z</time></trkpt><trkpt lat="51.948804" lon="-1.912609"><ele>228.45</ele><time>2011-10-05T10:22:51Z</time></trkpt><trkpt lat="51.948803" lon="-1.912597"><ele>228.45</ele><time>2011-10-05T10:23:08Z</time></trkpt><trkpt lat="51.948804" lon="-1.912596"><ele>228.45</ele><time>2011-10-05T10:23:19Z</time></trkpt><trkpt lat="51.948806" lon="-1.912600"><ele>227.97</ele><time>2011-10-05T10:23:29Z</time></trkpt><trkpt lat="51.948801" lon="-1.912595"><ele>227.97</ele><time>2011-10-05T10:23:57Z</time></trkpt><trkpt lat="51.948800" lon="-1.912576"><ele>227.97</ele><time>2011-10-05T10:24:35Z</time></trkpt><trkpt lat="51.948818" lon="-1.912599"><ele>227.49</ele><time>2011-10-05T10:24:44Z</time></trkpt><trkpt lat="51.948822" lon="-1.912607"><ele>227.49</ele><time>2011-10-05T10:25:09Z</time></trkpt><trkpt lat="51.948823" lon="-1.912594"><ele>227.97</ele><time>2011-10-05T10:25:46Z</time></trkpt><trkpt lat="51.948827" lon="-1.912611"><ele>229.89</ele><time>2011-10-05T10:26:33Z</time></trkpt><trkpt lat="51.948822" lon="-1.912596"><ele>229.41</ele><time>2011-10-05T10:27:31Z</time></trkpt><trkpt lat="51.948810" lon="-1.912595"><ele>230.85</ele><time>2011-10-05T10:28:56Z</time></trkpt><trkpt lat="51.948801" lon="-1.912591"><ele>230.37</ele><time>2011-10-05T10:31:26Z</time></trkpt><trkpt lat="51.948794" lon="-1.912583"><ele>230.85</ele><time>2011-10-05T10:31:35Z</time></trkpt><trkpt lat="51.948796" lon="-1.912563"><ele>232.78</ele><time>2011-10-05T10:31:44Z</time></trkpt><trkpt lat="51.948786" lon="-1.912615"><ele>233.26</ele><time>2011-10-05T10:31:49Z</time></trkpt><trkpt lat="51.948782" lon="-1.912672"><ele>233.74</ele><time>2011-10-05T10:31:54Z</time></trkpt><trkpt lat="51.948772" lon="-1.912687"><ele>233.74</ele><time>2011-10-05T10:32:01Z</time></trkpt><trkpt lat="51.948782" lon="-1.912698"><ele>233.74</ele><time>2011-10-05T10:32:15Z</time></trkpt><trkpt lat="51.948811" lon="-1.912653"><ele>234.22</ele><time>2011-10-05T10:32:25Z</time></trkpt><trkpt lat="51.948808" lon="-1.912599"><ele>233.74</ele><time>2011-10-05T10:32:33Z</time></trkpt><trkpt lat="51.948806" lon="-1.912578"><ele>233.74</ele><time>2011-10-05T10:32:53Z</time></trkpt><trkpt lat="51.948819" lon="-1.912587"><ele>233.26</ele><time>2011-10-05T10:33:10Z</time></trkpt><trkpt lat="51.948811" lon="-1.912586"><ele>233.74</ele><time>2011-10-05T10:33:20Z</time></trkpt><trkpt lat="51.948822" lon="-1.912592"><ele>232.78</ele><time>2011-10-05T10:33:28Z</time></trkpt><trkpt lat="51.948834" lon="-1.912590"><ele>233.26</ele><time>2011-10-05T10:33:52Z</time></trkpt><trkpt lat="51.948825" lon="-1.912588"><ele>232.30</ele><time>2011-10-05T10:34:12Z</time></trkpt><trkpt lat="51.948800" lon="-1.912610"><ele>235.18</ele><time>2011-10-05T10:34:43Z</time></trkpt><trkpt lat="51.948801" lon="-1.912604"><ele>234.22</ele><time>2011-10-05T10:34:56Z</time></trkpt><trkpt lat="51.948802" lon="-1.912597"><ele>233.74</ele><time>2011-10-05T10:35:06Z</time></trkpt><trkpt lat="51.948804" lon="-1.912597"><ele>234.22</ele><time>2011-10-05T10:35:50Z</time></trkpt><trkpt lat="51.948802" lon="-1.912598"><ele>233.74</ele><time>2011-10-05T10:36:16Z</time></trkpt><trkpt lat="51.948796" lon="-1.912606"><ele>234.70</ele><time>2011-10-05T10:36:36Z</time></trkpt><trkpt lat="51.948800" lon="-1.912609"><ele>234.22</ele><time>2011-10-05T10:38:19Z</time></trkpt><trkpt lat="51.948799" lon="-1.912606"><ele>233.74</ele><time>2011-10-05T10:38:27Z</time></trkpt><trkpt lat="51.948798" lon="-1.912624"><ele>233.74</ele><time>2011-10-05T10:38:30Z</time></trkpt><trkpt lat="51.948851" lon="-1.912665"><ele>232.30</ele><time>2011-10-05T10:38:38Z</time></trkpt><trkpt lat="51.948858" lon="-1.912677"><ele>233.26</ele><time>2011-10-05T10:38:45Z</time></trkpt><trkpt lat="51.948856" lon="-1.912687"><ele>232.78</ele><time>2011-10-05T10:38:59Z</time></trkpt><trkpt lat="51.948870" lon="-1.912673"><ele>232.78</ele><time>2011-10-05T10:39:08Z</time></trkpt><trkpt lat="51.948875" lon="-1.912665"><ele>230.85</ele><time>2011-10-05T10:39:26Z</time></trkpt><trkpt lat="51.948876" lon="-1.912661"><ele>230.85</ele><time>2011-10-05T10:39:29Z</time></trkpt><trkpt lat="51.948878" lon="-1.912650"><ele>230.37</ele><time>2011-10-05T10:39:31Z</time></trkpt><trkpt lat="51.948933" lon="-1.912454"><ele>229.89</ele><time>2011-10-05T10:39:43Z</time></trkpt><trkpt lat="51.948959" lon="-1.912338"><ele>230.37</ele><time>2011-10-05T10:39:51Z</time></trkpt><trkpt lat="51.948989" lon="-1.912166"><ele>230.37</ele><time>2011-10-05T10:40:01Z</time></trkpt><trkpt lat="51.948993" lon="-1.912108"><ele>230.85</ele><time>2011-10-05T10:40:04Z</time></trkpt><trkpt lat="51.949014" lon="-1.912042"><ele>231.33</ele><time>2011-10-05T10:40:08Z</time></trkpt><trkpt lat="51.949037" lon="-1.911930"><ele>231.81</ele><time>2011-10-05T10:40:14Z</time></trkpt><trkpt lat="51.949056" lon="-1.911867"><ele>231.33</ele><time>2011-10-05T10:40:18Z</time></trkpt><trkpt lat="51.949081" lon="-1.911777"><ele>232.30</ele><time>2011-10-05T10:40:27Z</time></trkpt><trkpt lat="51.949079" lon="-1.911780"><ele>231.81</ele><time>2011-10-05T10:40:30Z</time></trkpt><trkpt lat="51.949116" lon="-1.911665"><ele>231.33</ele><time>2011-10-05T10:40:39Z</time></trkpt><trkpt lat="51.949159" lon="-1.911534"><ele>230.37</ele><time>2011-10-05T10:40:48Z</time></trkpt><trkpt lat="51.949181" lon="-1.911475"><ele>230.37</ele><time>2011-10-05T10:40:56Z</time></trkpt><trkpt lat="51.949195" lon="-1.911469"><ele>230.37</ele><time>2011-10-05T10:41:05Z</time></trkpt><trkpt lat="51.949319" lon="-1.911421"><ele>229.89</ele><time>2011-10-05T10:41:15Z</time></trkpt><trkpt lat="51.949439" lon="-1.911394"><ele>227.97</ele><time>2011-10-05T10:41:26Z</time></trkpt><trkpt lat="51.949539" lon="-1.911384"><ele>226.05</ele><time>2011-10-05T10:41:36Z</time></trkpt><trkpt lat="51.949626" lon="-1.911357"><ele>224.12</ele><time>2011-10-05T10:41:46Z</time></trkpt><trkpt lat="51.949704" lon="-1.911355"><ele>222.68</ele><time>2011-10-05T10:41:53Z</time></trkpt><trkpt lat="51.949792" lon="-1.911375"><ele>221.24</ele><time>2011-10-05T10:42:02Z</time></trkpt><trkpt lat="51.949875" lon="-1.911414"><ele>220.28</ele><time>2011-10-05T10:42:11Z</time></trkpt><trkpt lat="51.949969" lon="-1.911464"><ele>219.80</ele><time>2011-10-05T10:42:20Z</time></trkpt><trkpt lat="51.950093" lon="-1.911510"><ele>219.80</ele><time>2011-10-05T10:42:31Z</time></trkpt><trkpt lat="51.950185" lon="-1.911537"><ele>219.80</ele><time>2011-10-05T10:42:40Z</time></trkpt><trkpt lat="51.950236" lon="-1.911561"><ele>219.80</ele><time>2011-10-05T10:42:49Z</time></trkpt><trkpt lat="51.950323" lon="-1.911600"><ele>220.28</ele><time>2011-10-05T10:42:59Z</time></trkpt><trkpt lat="51.950399" lon="-1.911660"><ele>221.24</ele><time>2011-10-05T10:43:09Z</time></trkpt><trkpt lat="51.950464" lon="-1.911715"><ele>221.24</ele><time>2011-10-05T10:43:18Z</time></trkpt><trkpt lat="51.950505" lon="-1.911740"><ele>222.20</ele><time>2011-10-05T10:43:27Z</time></trkpt><trkpt lat="51.950619" lon="-1.911812"><ele>225.09</ele><time>2011-10-05T10:43:39Z</time></trkpt><trkpt lat="51.950695" lon="-1.911866"><ele>227.01</ele><time>2011-10-05T10:43:48Z</time></trkpt><trkpt lat="51.950734" lon="-1.911878"><ele>227.97</ele><time>2011-10-05T10:43:57Z</time></trkpt><trkpt lat="51.950739" lon="-1.911876"><ele>228.45</ele><time>2011-10-05T10:44:04Z</time></trkpt><trkpt lat="51.950773" lon="-1.911858"><ele>228.93</ele><time>2011-10-05T10:44:10Z</time></trkpt><trkpt lat="51.950828" lon="-1.911873"><ele>228.45</ele><time>2011-10-05T10:44:17Z</time></trkpt><trkpt lat="51.950867" lon="-1.911891"><ele>227.49</ele><time>2011-10-05T10:44:25Z</time></trkpt><trkpt lat="51.950903" lon="-1.911947"><ele>226.53</ele><time>2011-10-05T10:44:35Z</time></trkpt><trkpt lat="51.950936" lon="-1.911982"><ele>226.05</ele><time>2011-10-05T10:44:44Z</time></trkpt><trkpt lat="51.950979" lon="-1.911975"><ele>226.53</ele><time>2011-10-05T10:45:42Z</time></trkpt><trkpt lat="51.951029" lon="-1.911971"><ele>227.01</ele><time>2011-10-05T10:45:53Z</time></trkpt><trkpt lat="51.951078" lon="-1.911973"><ele>226.05</ele><time>2011-10-05T10:46:00Z</time></trkpt><trkpt lat="51.951092" lon="-1.911962"><ele>225.09</ele><time>2011-10-05T10:46:08Z</time></trkpt><trkpt lat="51.951130" lon="-1.911977"><ele>224.61</ele><time>2011-10-05T10:46:15Z</time></trkpt><trkpt lat="51.951213" lon="-1.911960"><ele>223.16</ele><time>2011-10-05T10:46:23Z</time></trkpt><trkpt lat="51.951306" lon="-1.911958"><ele>222.20</ele><time>2011-10-05T10:46:32Z</time></trkpt><trkpt lat="51.951372" lon="-1.911960"><ele>221.24</ele><time>2011-10-05T10:46:39Z</time></trkpt><trkpt lat="51.951447" lon="-1.911962"><ele>220.76</ele><time>2011-10-05T10:46:47Z</time></trkpt><trkpt lat="51.951511" lon="-1.911968"><ele>219.80</ele><time>2011-10-05T10:46:54Z</time></trkpt><trkpt lat="51.951541" lon="-1.911968"><ele>219.80</ele><time>2011-10-05T10:46:57Z</time></trkpt><trkpt lat="51.951633" lon="-1.911977"><ele>219.80</ele><time>2011-10-05T10:47:06Z</time></trkpt><trkpt lat="51.951715" lon="-1.911985"><ele>219.32</ele><time>2011-10-05T10:47:15Z</time></trkpt><trkpt lat="51.951807" lon="-1.911992"><ele>219.80</ele><time>2011-10-05T10:47:24Z</time></trkpt><trkpt lat="51.951874" lon="-1.912000"><ele>219.32</ele><time>2011-10-05T10:47:32Z</time></trkpt><trkpt lat="51.951946" lon="-1.912010"><ele>218.84</ele><time>2011-10-05T10:47:40Z</time></trkpt><trkpt lat="51.952033" lon="-1.912026"><ele>218.84</ele><time>2011-10-05T10:47:49Z</time></trkpt><trkpt lat="51.952120" lon="-1.912038"><ele>218.36</ele><time>2011-10-05T10:47:58Z</time></trkpt><trkpt lat="51.952208" lon="-1.912044"><ele>218.36</ele><time>2011-10-05T10:48:07Z</time></trkpt><trkpt lat="51.952298" lon="-1.912059"><ele>218.36</ele><time>2011-10-05T10:48:16Z</time></trkpt><trkpt lat="51.952393" lon="-1.912069"><ele>218.36</ele><time>2011-10-05T10:48:25Z</time></trkpt><trkpt lat="51.952485" lon="-1.912083"><ele>217.40</ele><time>2011-10-05T10:48:34Z</time></trkpt><trkpt lat="51.952567" lon="-1.912096"><ele>216.91</ele><time>2011-10-05T10:48:43Z</time></trkpt><trkpt lat="51.952651" lon="-1.912110"><ele>216.43</ele><time>2011-10-05T10:48:52Z</time></trkpt><trkpt lat="51.952726" lon="-1.912123"><ele>215.95</ele><time>2011-10-05T10:49:00Z</time></trkpt><trkpt lat="51.952777" lon="-1.912127"><ele>215.47</ele><time>2011-10-05T10:49:07Z</time></trkpt><trkpt lat="51.952819" lon="-1.912119"><ele>214.51</ele><time>2011-10-05T10:49:25Z</time></trkpt><trkpt lat="51.952954" lon="-1.912115"><ele>214.51</ele><time>2011-10-05T10:49:37Z</time></trkpt><trkpt lat="51.953066" lon="-1.912143"><ele>214.99</ele><time>2011-10-05T10:49:48Z</time></trkpt><trkpt lat="51.953198" lon="-1.912171"><ele>214.99</ele><time>2011-10-05T10:50:01Z</time></trkpt><trkpt lat="51.953302" lon="-1.912186"><ele>213.55</ele><time>2011-10-05T10:50:11Z</time></trkpt><trkpt lat="51.953342" lon="-1.912199"><ele>214.51</ele><time>2011-10-05T10:50:18Z</time></trkpt><trkpt lat="51.953489" lon="-1.912223"><ele>214.99</ele><time>2011-10-05T10:50:31Z</time></trkpt><trkpt lat="51.953604" lon="-1.912249"><ele>214.51</ele><time>2011-10-05T10:50:41Z</time></trkpt><trkpt lat="51.953718" lon="-1.912275"><ele>215.95</ele><time>2011-10-05T10:50:52Z</time></trkpt><trkpt lat="51.953882" lon="-1.912311"><ele>218.84</ele><time>2011-10-05T10:51:07Z</time></trkpt><trkpt lat="51.953994" lon="-1.912324"><ele>219.32</ele><time>2011-10-05T10:51:18Z</time></trkpt><trkpt lat="51.954102" lon="-1.912347"><ele>220.28</ele><time>2011-10-05T10:51:28Z</time></trkpt><trkpt lat="51.954211" lon="-1.912371"><ele>220.76</ele><time>2011-10-05T10:51:39Z</time></trkpt><trkpt lat="51.954235" lon="-1.912385"><ele>221.24</ele><time>2011-10-05T10:51:47Z</time></trkpt><trkpt lat="51.954237" lon="-1.912386"><ele>221.24</ele><time>2011-10-05T10:52:09Z</time></trkpt><trkpt lat="51.954253" lon="-1.912388"><ele>221.72</ele><time>2011-10-05T10:52:17Z</time></trkpt><trkpt lat="51.954299" lon="-1.912418"><ele>222.68</ele><time>2011-10-05T10:52:28Z</time></trkpt><trkpt lat="51.954322" lon="-1.912444"><ele>223.16</ele><time>2011-10-05T10:52:40Z</time></trkpt><trkpt lat="51.954415" lon="-1.912491"><ele>222.68</ele><time>2011-10-05T10:52:49Z</time></trkpt><trkpt lat="51.954514" lon="-1.912535"><ele>223.16</ele><time>2011-10-05T10:52:59Z</time></trkpt><trkpt lat="51.954590" lon="-1.912566"><ele>223.16</ele><time>2011-10-05T10:53:07Z</time></trkpt><trkpt lat="51.954662" lon="-1.912592"><ele>222.68</ele><time>2011-10-05T10:53:14Z</time></trkpt><trkpt lat="51.954757" lon="-1.912635"><ele>221.72</ele><time>2011-10-05T10:53:24Z</time></trkpt><trkpt lat="51.954838" lon="-1.912655"><ele>221.24</ele><time>2011-10-05T10:53:32Z</time></trkpt><trkpt lat="51.954898" lon="-1.912678"><ele>221.24</ele><time>2011-10-05T10:53:41Z</time></trkpt><trkpt lat="51.954929" lon="-1.912684"><ele>222.20</ele><time>2011-10-05T10:53:58Z</time></trkpt><trkpt lat="51.955069" lon="-1.912751"><ele>223.64</ele><time>2011-10-05T10:54:11Z</time></trkpt><trkpt lat="51.955194" lon="-1.912778"><ele>223.64</ele><time>2011-10-05T10:54:22Z</time></trkpt><trkpt lat="51.955341" lon="-1.912828"><ele>223.16</ele><time>2011-10-05T10:54:34Z</time></trkpt><trkpt lat="51.955426" lon="-1.912837"><ele>223.64</ele><time>2011-10-05T10:54:43Z</time></trkpt><trkpt lat="51.955487" lon="-1.912844"><ele>224.61</ele><time>2011-10-05T10:54:51Z</time></trkpt><trkpt lat="51.955489" lon="-1.912856"><ele>223.64</ele><time>2011-10-05T10:55:10Z</time></trkpt><trkpt lat="51.955482" lon="-1.912857"><ele>224.12</ele><time>2011-10-05T10:55:19Z</time></trkpt><trkpt lat="51.955508" lon="-1.912850"><ele>224.61</ele><time>2011-10-05T10:55:33Z</time></trkpt><trkpt lat="51.955527" lon="-1.912850"><ele>224.61</ele><time>2011-10-05T10:55:42Z</time></trkpt><trkpt lat="51.955530" lon="-1.912859"><ele>224.61</ele><time>2011-10-05T10:55:53Z</time></trkpt><trkpt lat="51.955655" lon="-1.912931"><ele>223.16</ele><time>2011-10-05T10:56:04Z</time></trkpt><trkpt lat="51.955753" lon="-1.912974"><ele>222.68</ele><time>2011-10-05T10:56:13Z</time></trkpt><trkpt lat="51.955898" lon="-1.913039"><ele>226.53</ele><time>2011-10-05T10:56:25Z</time></trkpt><trkpt lat="51.955990" lon="-1.913069"><ele>227.49</ele><time>2011-10-05T10:56:35Z</time></trkpt><trkpt lat="51.956095" lon="-1.913075"><ele>227.01</ele><time>2011-10-05T10:56:47Z</time></trkpt><trkpt lat="51.956196" lon="-1.913147"><ele>228.45</ele><time>2011-10-05T10:56:59Z</time></trkpt><trkpt lat="51.956284" lon="-1.913197"><ele>229.41</ele><time>2011-10-05T10:57:09Z</time></trkpt><trkpt lat="51.956309" lon="-1.913181"><ele>230.85</ele><time>2011-10-05T10:57:17Z</time></trkpt><trkpt lat="51.956355" lon="-1.913040"><ele>233.26</ele><time>2011-10-05T10:57:30Z</time></trkpt><trkpt lat="51.956351" lon="-1.912963"><ele>235.66</ele><time>2011-10-05T10:57:40Z</time></trkpt><trkpt lat="51.956346" lon="-1.912954"><ele>235.66</ele><time>2011-10-05T10:57:41Z</time></trkpt><trkpt lat="51.956297" lon="-1.912857"><ele>234.22</ele><time>2011-10-05T10:57:48Z</time></trkpt><trkpt lat="51.956256" lon="-1.912725"><ele>234.22</ele><time>2011-10-05T10:57:57Z</time></trkpt><trkpt lat="51.956214" lon="-1.912643"><ele>235.18</ele><time>2011-10-05T10:58:05Z</time></trkpt><trkpt lat="51.956221" lon="-1.912621"><ele>235.66</ele><time>2011-10-05T10:58:14Z</time></trkpt><trkpt lat="51.956179" lon="-1.912692"><ele>233.26</ele><time>2011-10-05T10:58:25Z</time></trkpt><trkpt lat="51.956220" lon="-1.912647"><ele>232.30</ele><time>2011-10-05T10:58:35Z</time></trkpt><trkpt lat="51.956277" lon="-1.912669"><ele>232.30</ele><time>2011-10-05T10:58:41Z</time></trkpt><trkpt lat="51.956374" lon="-1.912697"><ele>232.30</ele><time>2011-10-05T10:58:49Z</time></trkpt><trkpt lat="51.956502" lon="-1.912736"><ele>231.33</ele><time>2011-10-05T10:58:58Z</time></trkpt><trkpt lat="51.956622" lon="-1.912739"><ele>234.70</ele><time>2011-10-05T10:59:07Z</time></trkpt><trkpt lat="51.956726" lon="-1.912719"><ele>233.74</ele><time>2011-10-05T10:59:17Z</time></trkpt><trkpt lat="51.956847" lon="-1.912686"><ele>233.26</ele><time>2011-10-05T10:59:28Z</time></trkpt><trkpt lat="51.956942" lon="-1.912668"><ele>233.26</ele><time>2011-10-05T10:59:38Z</time></trkpt><trkpt lat="51.957038" lon="-1.912632"><ele>232.78</ele><time>2011-10-05T10:59:48Z</time></trkpt><trkpt lat="51.957137" lon="-1.912584"><ele>232.30</ele><time>2011-10-05T10:59:58Z</time></trkpt><trkpt lat="51.957230" lon="-1.912520"><ele>229.41</ele><time>2011-10-05T11:00:09Z</time></trkpt><trkpt lat="51.957323" lon="-1.912469"><ele>229.41</ele><time>2011-10-05T11:00:19Z</time></trkpt><trkpt lat="51.957432" lon="-1.912396"><ele>230.37</ele><time>2011-10-05T11:00:30Z</time></trkpt><trkpt lat="51.957538" lon="-1.912333"><ele>231.81</ele><time>2011-10-05T11:00:41Z</time></trkpt><trkpt lat="51.957636" lon="-1.912267"><ele>233.26</ele><time>2011-10-05T11:00:51Z</time></trkpt><trkpt lat="51.957706" lon="-1.912214"><ele>234.22</ele><time>2011-10-05T11:01:00Z</time></trkpt><trkpt lat="51.957773" lon="-1.912141"><ele>235.18</ele><time>2011-10-05T11:01:09Z</time></trkpt><trkpt lat="51.957849" lon="-1.912088"><ele>234.70</ele><time>2011-10-05T11:01:17Z</time></trkpt><trkpt lat="51.957906" lon="-1.912047"><ele>232.78</ele><time>2011-10-05T11:01:25Z</time></trkpt><trkpt lat="51.957906" lon="-1.912018"><ele>232.78</ele><time>2011-10-05T11:01:31Z</time></trkpt><trkpt lat="51.957928" lon="-1.911986"><ele>233.26</ele><time>2011-10-05T11:01:38Z</time></trkpt><trkpt lat="51.958038" lon="-1.911995"><ele>233.26</ele><time>2011-10-05T11:01:48Z</time></trkpt><trkpt lat="51.958126" lon="-1.911991"><ele>233.26</ele><time>2011-10-05T11:01:56Z</time></trkpt><trkpt lat="51.958247" lon="-1.911978"><ele>233.26</ele><time>2011-10-05T11:02:06Z</time></trkpt><trkpt lat="51.958319" lon="-1.911919"><ele>234.70</ele><time>2011-10-05T11:02:14Z</time></trkpt><trkpt lat="51.958368" lon="-1.911878"><ele>236.62</ele><time>2011-10-05T11:02:21Z</time></trkpt><trkpt lat="51.958431" lon="-1.911853"><ele>238.54</ele><time>2011-10-05T11:02:29Z</time></trkpt><trkpt lat="51.958429" lon="-1.911869"><ele>239.02</ele><time>2011-10-05T11:02:44Z</time></trkpt><trkpt lat="51.958436" lon="-1.911880"><ele>238.06</ele><time>2011-10-05T11:02:47Z</time></trkpt><trkpt lat="51.958455" lon="-1.911880"><ele>237.58</ele><time>2011-10-05T11:02:56Z</time></trkpt><trkpt lat="51.958433" lon="-1.911830"><ele>237.58</ele><time>2011-10-05T11:03:03Z</time></trkpt><trkpt lat="51.958419" lon="-1.911775"><ele>238.06</ele><time>2011-10-05T11:03:18Z</time></trkpt><trkpt lat="51.958457" lon="-1.911752"><ele>238.54</ele><time>2011-10-05T11:03:27Z</time></trkpt><trkpt lat="51.958500" lon="-1.911732"><ele>239.02</ele><time>2011-10-05T11:03:31Z</time></trkpt><trkpt lat="51.958591" lon="-1.911726"><ele>238.54</ele><time>2011-10-05T11:03:40Z</time></trkpt><trkpt lat="51.958596" lon="-1.911712"><ele>238.06</ele><time>2011-10-05T11:03:49Z</time></trkpt><trkpt lat="51.958630" lon="-1.911696"><ele>238.54</ele><time>2011-10-05T11:04:01Z</time></trkpt><trkpt lat="51.958701" lon="-1.911683"><ele>239.51</ele><time>2011-10-05T11:04:09Z</time></trkpt><trkpt lat="51.958756" lon="-1.911684"><ele>238.54</ele><time>2011-10-05T11:04:15Z</time></trkpt><trkpt lat="51.958824" lon="-1.911679"><ele>238.06</ele><time>2011-10-05T11:04:22Z</time></trkpt><trkpt lat="51.958919" lon="-1.911721"><ele>238.06</ele><time>2011-10-05T11:04:32Z</time></trkpt><trkpt lat="51.959018" lon="-1.911762"><ele>237.58</ele><time>2011-10-05T11:04:40Z</time></trkpt><trkpt lat="51.959127" lon="-1.911840"><ele>235.66</ele><time>2011-10-05T11:04:49Z</time></trkpt><trkpt lat="51.959248" lon="-1.911868"><ele>233.74</ele><time>2011-10-05T11:04:58Z</time></trkpt><trkpt lat="51.959370" lon="-1.911873"><ele>236.62</ele><time>2011-10-05T11:05:08Z</time></trkpt><trkpt lat="51.959505" lon="-1.911881"><ele>238.54</ele><time>2011-10-05T11:05:19Z</time></trkpt><trkpt lat="51.959595" lon="-1.911885"><ele>239.99</ele><time>2011-10-05T11:05:27Z</time></trkpt><trkpt lat="51.959631" lon="-1.911896"><ele>239.51</ele><time>2011-10-05T11:05:35Z</time></trkpt><trkpt lat="51.959624" lon="-1.911893"><ele>239.51</ele><time>2011-10-05T11:06:05Z</time></trkpt><trkpt lat="51.959626" lon="-1.911892"><ele>239.51</ele><time>2011-10-05T11:06:28Z</time></trkpt><trkpt lat="51.959620" lon="-1.911900"><ele>239.51</ele><time>2011-10-05T11:07:16Z</time></trkpt><trkpt lat="51.959659" lon="-1.911884"><ele>240.47</ele><time>2011-10-05T11:10:31Z</time></trkpt><trkpt lat="51.959778" lon="-1.911882"><ele>240.95</ele><time>2011-10-05T11:10:41Z</time></trkpt><trkpt lat="51.959887" lon="-1.911874"><ele>237.58</ele><time>2011-10-05T11:10:51Z</time></trkpt><trkpt lat="51.960006" lon="-1.911900"><ele>235.66</ele><time>2011-10-05T11:11:00Z</time></trkpt><trkpt lat="51.960061" lon="-1.911945"><ele>235.66</ele><time>2011-10-05T11:11:06Z</time></trkpt><trkpt lat="51.960145" lon="-1.911971"><ele>235.66</ele><time>2011-10-05T11:11:14Z</time></trkpt><trkpt lat="51.960239" lon="-1.911952"><ele>236.14</ele><time>2011-10-05T11:11:22Z</time></trkpt><trkpt lat="51.960346" lon="-1.911984"><ele>237.10</ele><time>2011-10-05T11:11:32Z</time></trkpt><trkpt lat="51.960465" lon="-1.912036"><ele>236.62</ele><time>2011-10-05T11:11:44Z</time></trkpt><trkpt lat="51.960584" lon="-1.912027"><ele>237.10</ele><time>2011-10-05T11:11:55Z</time></trkpt><trkpt lat="51.960646" lon="-1.912050"><ele>236.14</ele><time>2011-10-05T11:12:03Z</time></trkpt><trkpt lat="51.960736" lon="-1.912049"><ele>235.18</ele><time>2011-10-05T11:12:12Z</time></trkpt><trkpt lat="51.960843" lon="-1.912065"><ele>236.62</ele><time>2011-10-05T11:12:21Z</time></trkpt><trkpt lat="51.960940" lon="-1.912129"><ele>238.54</ele><time>2011-10-05T11:12:31Z</time></trkpt><trkpt lat="51.961007" lon="-1.912189"><ele>234.70</ele><time>2011-10-05T11:12:40Z</time></trkpt><trkpt lat="51.961066" lon="-1.912277"><ele>233.74</ele><time>2011-10-05T11:12:49Z</time></trkpt><trkpt lat="51.961107" lon="-1.912417"><ele>232.30</ele><time>2011-10-05T11:13:00Z</time></trkpt><trkpt lat="51.961159" lon="-1.912529"><ele>232.30</ele><time>2011-10-05T11:13:10Z</time></trkpt><trkpt lat="51.961181" lon="-1.912649"><ele>232.30</ele><time>2011-10-05T11:13:19Z</time></trkpt><trkpt lat="51.961206" lon="-1.912780"><ele>232.30</ele><time>2011-10-05T11:13:28Z</time></trkpt><trkpt lat="51.961227" lon="-1.912873"><ele>231.81</ele><time>2011-10-05T11:13:35Z</time></trkpt><trkpt lat="51.961271" lon="-1.913020"><ele>231.33</ele><time>2011-10-05T11:13:45Z</time></trkpt><trkpt lat="51.961314" lon="-1.913138"><ele>230.37</ele><time>2011-10-05T11:13:54Z</time></trkpt><trkpt lat="51.961375" lon="-1.913251"><ele>229.41</ele><time>2011-10-05T11:14:04Z</time></trkpt><trkpt lat="51.961457" lon="-1.913370"><ele>228.45</ele><time>2011-10-05T11:14:14Z</time></trkpt><trkpt lat="51.961540" lon="-1.913484"><ele>227.01</ele><time>2011-10-05T11:14:24Z</time></trkpt><trkpt lat="51.961619" lon="-1.913567"><ele>227.01</ele><time>2011-10-05T11:14:33Z</time></trkpt><trkpt lat="51.961710" lon="-1.913670"><ele>227.01</ele><time>2011-10-05T11:14:43Z</time></trkpt><trkpt lat="51.961779" lon="-1.913754"><ele>226.53</ele><time>2011-10-05T11:14:51Z</time></trkpt><trkpt lat="51.961854" lon="-1.913853"><ele>226.53</ele><time>2011-10-05T11:15:01Z</time></trkpt><trkpt lat="51.961920" lon="-1.913952"><ele>226.05</ele><time>2011-10-05T11:15:09Z</time></trkpt><trkpt lat="51.962025" lon="-1.914099"><ele>225.09</ele><time>2011-10-05T11:15:20Z</time></trkpt><trkpt lat="51.962113" lon="-1.914232"><ele>223.64</ele><time>2011-10-05T11:15:30Z</time></trkpt><trkpt lat="51.962212" lon="-1.914359"><ele>222.68</ele><time>2011-10-05T11:15:41Z</time></trkpt><trkpt lat="51.962315" lon="-1.914504"><ele>221.24</ele><time>2011-10-05T11:15:53Z</time></trkpt><trkpt lat="51.962415" lon="-1.914627"><ele>220.28</ele><time>2011-10-05T11:16:03Z</time></trkpt><trkpt lat="51.962527" lon="-1.914755"><ele>218.36</ele><time>2011-10-05T11:16:15Z</time></trkpt><trkpt lat="51.962636" lon="-1.914888"><ele>217.88</ele><time>2011-10-05T11:16:27Z</time></trkpt><trkpt lat="51.962745" lon="-1.915009"><ele>216.91</ele><time>2011-10-05T11:16:39Z</time></trkpt><trkpt lat="51.962845" lon="-1.915120"><ele>215.95</ele><time>2011-10-05T11:16:50Z</time></trkpt><trkpt lat="51.962923" lon="-1.915177"><ele>214.99</ele><time>2011-10-05T11:16:58Z</time></trkpt><trkpt lat="51.962972" lon="-1.915242"><ele>214.51</ele><time>2011-10-05T11:17:06Z</time></trkpt><trkpt lat="51.963030" lon="-1.915293"><ele>213.07</ele><time>2011-10-05T11:17:14Z</time></trkpt><trkpt lat="51.963079" lon="-1.915352"><ele>211.63</ele><time>2011-10-05T11:17:22Z</time></trkpt><trkpt lat="51.963110" lon="-1.915391"><ele>210.67</ele><time>2011-10-05T11:17:28Z</time></trkpt><trkpt lat="51.963170" lon="-1.915495"><ele>208.74</ele><time>2011-10-05T11:17:37Z</time></trkpt><trkpt lat="51.963238" lon="-1.915587"><ele>205.38</ele><time>2011-10-05T11:17:46Z</time></trkpt><trkpt lat="51.963304" lon="-1.915656"><ele>203.94</ele><time>2011-10-05T11:17:55Z</time></trkpt><trkpt lat="51.963354" lon="-1.915719"><ele>202.01</ele><time>2011-10-05T11:18:03Z</time></trkpt><trkpt lat="51.963405" lon="-1.915812"><ele>199.61</ele><time>2011-10-05T11:18:13Z</time></trkpt><trkpt lat="51.963455" lon="-1.915912"><ele>199.13</ele><time>2011-10-05T11:18:21Z</time></trkpt><trkpt lat="51.963508" lon="-1.916000"><ele>199.61</ele><time>2011-10-05T11:18:29Z</time></trkpt><trkpt lat="51.963542" lon="-1.916102"><ele>201.05</ele><time>2011-10-05T11:18:38Z</time></trkpt><trkpt lat="51.963561" lon="-1.916128"><ele>202.98</ele><time>2011-10-05T11:18:50Z</time></trkpt><trkpt lat="51.963588" lon="-1.916245"><ele>204.90</ele><time>2011-10-05T11:19:00Z</time></trkpt><trkpt lat="51.963644" lon="-1.916398"><ele>204.90</ele><time>2011-10-05T11:19:10Z</time></trkpt><trkpt lat="51.963697" lon="-1.916499"><ele>202.98</ele><time>2011-10-05T11:19:19Z</time></trkpt><trkpt lat="51.963736" lon="-1.916554"><ele>203.94</ele><time>2011-10-05T11:19:29Z</time></trkpt><trkpt lat="51.963817" lon="-1.916648"><ele>203.46</ele><time>2011-10-05T11:19:37Z</time></trkpt><trkpt lat="51.963876" lon="-1.916731"><ele>202.49</ele><time>2011-10-05T11:19:45Z</time></trkpt><trkpt lat="51.963934" lon="-1.916810"><ele>200.09</ele><time>2011-10-05T11:19:54Z</time></trkpt><trkpt lat="51.963975" lon="-1.916887"><ele>199.13</ele><time>2011-10-05T11:20:01Z</time></trkpt><trkpt lat="51.964030" lon="-1.916943"><ele>197.69</ele><time>2011-10-05T11:20:08Z</time></trkpt><trkpt lat="51.964055" lon="-1.917059"><ele>198.17</ele><time>2011-10-05T11:20:17Z</time></trkpt><trkpt lat="51.964104" lon="-1.917186"><ele>196.73</ele><time>2011-10-05T11:20:26Z</time></trkpt><trkpt lat="51.964156" lon="-1.917285"><ele>197.69</ele><time>2011-10-05T11:20:34Z</time></trkpt><trkpt lat="51.964167" lon="-1.917321"><ele>198.17</ele><time>2011-10-05T11:20:37Z</time></trkpt><trkpt lat="51.964206" lon="-1.917449"><ele>198.17</ele><time>2011-10-05T11:20:44Z</time></trkpt><trkpt lat="51.964264" lon="-1.917568"><ele>196.25</ele><time>2011-10-05T11:20:51Z</time></trkpt><trkpt lat="51.964336" lon="-1.917684"><ele>192.88</ele><time>2011-10-05T11:20:59Z</time></trkpt><trkpt lat="51.964401" lon="-1.917760"><ele>190.00</ele><time>2011-10-05T11:21:08Z</time></trkpt><trkpt lat="51.964506" lon="-1.917853"><ele>188.56</ele><time>2011-10-05T11:21:18Z</time></trkpt><trkpt lat="51.964603" lon="-1.917943"><ele>186.63</ele><time>2011-10-05T11:21:27Z</time></trkpt><trkpt lat="51.964664" lon="-1.918040"><ele>185.67</ele><time>2011-10-05T11:21:36Z</time></trkpt><trkpt lat="51.964718" lon="-1.918109"><ele>185.19</ele><time>2011-10-05T11:21:43Z</time></trkpt><trkpt lat="51.964770" lon="-1.918207"><ele>183.27</ele><time>2011-10-05T11:21:53Z</time></trkpt><trkpt lat="51.964835" lon="-1.918283"><ele>182.79</ele><time>2011-10-05T11:22:00Z</time></trkpt><trkpt lat="51.964906" lon="-1.918378"><ele>182.31</ele><time>2011-10-05T11:22:09Z</time></trkpt><trkpt lat="51.964984" lon="-1.918464"><ele>181.83</ele><time>2011-10-05T11:22:21Z</time></trkpt><trkpt lat="51.965078" lon="-1.918553"><ele>180.87</ele><time>2011-10-05T11:22:30Z</time></trkpt><trkpt lat="51.965149" lon="-1.918609"><ele>179.90</ele><time>2011-10-05T11:22:37Z</time></trkpt><trkpt lat="51.965219" lon="-1.918678"><ele>180.38</ele><time>2011-10-05T11:22:45Z</time></trkpt><trkpt lat="51.965228" lon="-1.918682"><ele>179.90</ele><time>2011-10-05T11:22:46Z</time></trkpt><trkpt lat="51.965292" lon="-1.918690"><ele>179.42</ele><time>2011-10-05T11:22:51Z</time></trkpt><trkpt lat="51.965366" lon="-1.918712"><ele>177.50</ele><time>2011-10-05T11:22:59Z</time></trkpt><trkpt lat="51.965427" lon="-1.918757"><ele>177.50</ele><time>2011-10-05T11:23:06Z</time></trkpt><trkpt lat="51.965514" lon="-1.918785"><ele>177.02</ele><time>2011-10-05T11:23:15Z</time></trkpt><trkpt lat="51.965545" lon="-1.918811"><ele>176.54</ele><time>2011-10-05T11:23:19Z</time></trkpt><trkpt lat="51.965613" lon="-1.918856"><ele>175.10</ele><time>2011-10-05T11:23:27Z</time></trkpt><trkpt lat="51.965722" lon="-1.918839"><ele>174.14</ele><time>2011-10-05T11:23:37Z</time></trkpt><trkpt lat="51.965733" lon="-1.918837"><ele>174.14</ele><time>2011-10-05T11:23:38Z</time></trkpt><trkpt lat="51.965834" lon="-1.918858"><ele>178.94</ele><time>2011-10-05T11:23:47Z</time></trkpt><trkpt lat="51.965860" lon="-1.918871"><ele>178.46</ele><time>2011-10-05T11:23:49Z</time></trkpt><trkpt lat="51.965953" lon="-1.918887"><ele>177.98</ele><time>2011-10-05T11:23:58Z</time></trkpt><trkpt lat="51.966017" lon="-1.918888"><ele>174.62</ele><time>2011-10-05T11:24:05Z</time></trkpt><trkpt lat="51.966082" lon="-1.918904"><ele>174.14</ele><time>2011-10-05T11:24:16Z</time></trkpt><trkpt lat="51.966191" lon="-1.918960"><ele>173.17</ele><time>2011-10-05T11:24:26Z</time></trkpt><trkpt lat="51.966277" lon="-1.919025"><ele>172.69</ele><time>2011-10-05T11:24:36Z</time></trkpt><trkpt lat="51.966332" lon="-1.919056"><ele>172.21</ele><time>2011-10-05T11:24:42Z</time></trkpt><trkpt lat="51.966405" lon="-1.919091"><ele>171.25</ele><time>2011-10-05T11:24:50Z</time></trkpt><trkpt lat="51.966481" lon="-1.919133"><ele>170.29</ele><time>2011-10-05T11:25:00Z</time></trkpt><trkpt lat="51.966553" lon="-1.919176"><ele>169.33</ele><time>2011-10-05T11:25:09Z</time></trkpt><trkpt lat="51.966633" lon="-1.919201"><ele>168.37</ele><time>2011-10-05T11:25:17Z</time></trkpt><trkpt lat="51.966717" lon="-1.919236"><ele>165.96</ele><time>2011-10-05T11:25:25Z</time></trkpt><trkpt lat="51.966789" lon="-1.919308"><ele>162.12</ele><time>2011-10-05T11:25:36Z</time></trkpt><trkpt lat="51.966824" lon="-1.919374"><ele>159.72</ele><time>2011-10-05T11:25:44Z</time></trkpt><trkpt lat="51.966900" lon="-1.919411"><ele>157.79</ele><time>2011-10-05T11:25:52Z</time></trkpt><trkpt lat="51.966928" lon="-1.919423"><ele>157.79</ele><time>2011-10-05T11:25:54Z</time></trkpt><trkpt lat="51.967028" lon="-1.919492"><ele>156.83</ele><time>2011-10-05T11:26:04Z</time></trkpt><trkpt lat="51.967076" lon="-1.919580"><ele>158.27</ele><time>2011-10-05T11:26:12Z</time></trkpt><trkpt lat="51.967113" lon="-1.919669"><ele>159.24</ele><time>2011-10-05T11:26:20Z</time></trkpt><trkpt lat="51.967160" lon="-1.919764"><ele>159.72</ele><time>2011-10-05T11:26:29Z</time></trkpt><trkpt lat="51.967164" lon="-1.919908"><ele>159.72</ele><time>2011-10-05T11:26:40Z</time></trkpt><trkpt lat="51.967177" lon="-1.919970"><ele>159.72</ele><time>2011-10-05T11:26:44Z</time></trkpt><trkpt lat="51.967229" lon="-1.920156"><ele>159.24</ele><time>2011-10-05T11:26:54Z</time></trkpt><trkpt lat="51.967249" lon="-1.920239"><ele>158.75</ele><time>2011-10-05T11:26:59Z</time></trkpt><trkpt lat="51.967285" lon="-1.920375"><ele>157.79</ele><time>2011-10-05T11:27:09Z</time></trkpt><trkpt lat="51.967337" lon="-1.920498"><ele>156.83</ele><time>2011-10-05T11:27:17Z</time></trkpt><trkpt lat="51.967407" lon="-1.920621"><ele>156.83</ele><time>2011-10-05T11:27:26Z</time></trkpt><trkpt lat="51.967443" lon="-1.920698"><ele>155.87</ele><time>2011-10-05T11:27:31Z</time></trkpt><trkpt lat="51.967497" lon="-1.920790"><ele>154.43</ele><time>2011-10-05T11:27:39Z</time></trkpt><trkpt lat="51.967573" lon="-1.920911"><ele>150.10</ele><time>2011-10-05T11:27:49Z</time></trkpt><trkpt lat="51.967644" lon="-1.920987"><ele>147.70</ele><time>2011-10-05T11:27:58Z</time></trkpt><trkpt lat="51.967678" lon="-1.921046"><ele>147.70</ele><time>2011-10-05T11:28:05Z</time></trkpt><trkpt lat="51.967698" lon="-1.921085"><ele>148.18</ele><time>2011-10-05T11:28:09Z</time></trkpt><trkpt lat="51.967739" lon="-1.921165"><ele>149.62</ele><time>2011-10-05T11:28:16Z</time></trkpt><trkpt lat="51.967786" lon="-1.921271"><ele>151.06</ele><time>2011-10-05T11:28:25Z</time></trkpt><trkpt lat="51.967815" lon="-1.921443"><ele>152.03</ele><time>2011-10-05T11:28:36Z</time></trkpt><trkpt lat="51.967868" lon="-1.921607"><ele>151.06</ele><time>2011-10-05T11:28:45Z</time></trkpt><trkpt lat="51.967882" lon="-1.921747"><ele>151.54</ele><time>2011-10-05T11:28:54Z</time></trkpt><trkpt lat="51.967854" lon="-1.921877"><ele>151.54</ele><time>2011-10-05T11:29:04Z</time></trkpt><trkpt lat="51.967840" lon="-1.922018"><ele>150.10</ele><time>2011-10-05T11:29:13Z</time></trkpt><trkpt lat="51.967842" lon="-1.922129"><ele>148.66</ele><time>2011-10-05T11:29:20Z</time></trkpt><trkpt lat="51.967848" lon="-1.922294"><ele>143.85</ele><time>2011-10-05T11:29:30Z</time></trkpt><trkpt lat="51.967866" lon="-1.922451"><ele>141.45</ele><time>2011-10-05T11:29:39Z</time></trkpt><trkpt lat="51.967879" lon="-1.922569"><ele>139.53</ele><time>2011-10-05T11:29:46Z</time></trkpt><trkpt lat="51.967893" lon="-1.922693"><ele>137.61</ele><time>2011-10-05T11:29:55Z</time></trkpt><trkpt lat="51.967930" lon="-1.922793"><ele>136.16</ele><time>2011-10-05T11:30:03Z</time></trkpt><trkpt lat="51.967976" lon="-1.922902"><ele>135.20</ele><time>2011-10-05T11:30:12Z</time></trkpt><trkpt lat="51.968027" lon="-1.923017"><ele>132.80</ele><time>2011-10-05T11:30:20Z</time></trkpt><trkpt lat="51.968100" lon="-1.923090"><ele>129.92</ele><time>2011-10-05T11:30:30Z</time></trkpt><trkpt lat="51.968192" lon="-1.923123"><ele>126.55</ele><time>2011-10-05T11:30:41Z</time></trkpt><trkpt lat="51.968236" lon="-1.923179"><ele>123.67</ele><time>2011-10-05T11:30:48Z</time></trkpt><trkpt lat="51.968361" lon="-1.923261"><ele>120.78</ele><time>2011-10-05T11:30:58Z</time></trkpt><trkpt lat="51.968443" lon="-1.923374"><ele>122.22</ele><time>2011-10-05T11:31:09Z</time></trkpt><trkpt lat="51.968459" lon="-1.923396"><ele>122.22</ele><time>2011-10-05T11:31:12Z</time></trkpt><trkpt lat="51.968501" lon="-1.923448"><ele>121.74</ele><time>2011-10-05T11:31:19Z</time></trkpt><trkpt lat="51.968518" lon="-1.923520"><ele>122.71</ele><time>2011-10-05T11:31:24Z</time></trkpt><trkpt lat="51.968510" lon="-1.923556"><ele>124.15</ele><time>2011-10-05T11:31:27Z</time></trkpt><trkpt lat="51.968468" lon="-1.923572"><ele>127.03</ele><time>2011-10-05T11:31:35Z</time></trkpt><trkpt lat="51.968472" lon="-1.923561"><ele>129.43</ele><time>2011-10-05T11:31:41Z</time></trkpt><trkpt lat="51.968410" lon="-1.923563"><ele>131.84</ele><time>2011-10-05T11:31:48Z</time></trkpt><trkpt lat="51.968311" lon="-1.923545"><ele>133.28</ele><time>2011-10-05T11:31:56Z</time></trkpt><trkpt lat="51.968231" lon="-1.923506"><ele>134.24</ele><time>2011-10-05T11:32:03Z</time></trkpt><trkpt lat="51.968135" lon="-1.923504"><ele>135.68</ele><time>2011-10-05T11:32:11Z</time></trkpt><trkpt lat="51.968032" lon="-1.923487"><ele>136.16</ele><time>2011-10-05T11:32:20Z</time></trkpt><trkpt lat="51.967950" lon="-1.923457"><ele>135.20</ele><time>2011-10-05T11:32:28Z</time></trkpt><trkpt lat="51.967844" lon="-1.923425"><ele>132.80</ele><time>2011-10-05T11:32:38Z</time></trkpt><trkpt lat="51.967726" lon="-1.923391"><ele>132.80</ele><time>2011-10-05T11:32:48Z</time></trkpt><trkpt lat="51.967602" lon="-1.923379"><ele>133.28</ele><time>2011-10-05T11:32:59Z</time></trkpt><trkpt lat="51.967485" lon="-1.923384"><ele>135.20</ele><time>2011-10-05T11:33:09Z</time></trkpt><trkpt lat="51.967377" lon="-1.923358"><ele>136.64</ele><time>2011-10-05T11:33:19Z</time></trkpt><trkpt lat="51.967245" lon="-1.923333"><ele>134.72</ele><time>2011-10-05T11:33:31Z</time></trkpt><trkpt lat="51.967135" lon="-1.923310"><ele>134.24</ele><time>2011-10-05T11:33:41Z</time></trkpt><trkpt lat="51.967018" lon="-1.923289"><ele>133.28</ele><time>2011-10-05T11:33:52Z</time></trkpt><trkpt lat="51.966970" lon="-1.923249"><ele>132.32</ele><time>2011-10-05T11:33:59Z</time></trkpt><trkpt lat="51.966966" lon="-1.923219"><ele>130.88</ele><time>2011-10-05T11:34:07Z</time></trkpt><trkpt lat="51.966979" lon="-1.923239"><ele>128.95</ele><time>2011-10-05T11:34:57Z</time></trkpt><trkpt lat="51.966982" lon="-1.923215"><ele>128.95</ele><time>2011-10-05T11:35:17Z</time></trkpt></trkseg></trk></gpx>